<?xml version="1.0" encoding="UTF-8" standalone="no" ?>
<gpx xmlns="http://www.topografix.com/GPX/1/1" xmlns:xsi="http://www.w3.org/2001/XMLSchema-instance" xsi:schemaLocation="http://www.topografix.com/GPX/1/1 http://www.topografix.com/GPX/1/1/gpx.xsd" version="1.1" creator="VisuGPX - https://www.visugpx.com">
  <metadata>
    <name>Chomelix-coulée de lave-château de chalencon</name>
    <desc><![CDATA[Sortie du 08/04/12]]></desc>
  </metadata>
  <trk>
    <name><![CDATA[Chomelix-coulée de lave-château de chalencon_1]]></name>
    <trkseg>
      <trkpt lat="45.34705" lon="3.96584">
        <ele>964.6</ele>
        <time>2012-04-12T13:08:06Z</time>
      </trkpt>
      <trkpt lat="45.34705" lon="3.96584">
        <ele>985.8</ele>
        <time>2012-04-12T13:08:17Z</time>
      </trkpt>
      <trkpt lat="45.34715" lon="3.96591">
        <ele>983</ele>
        <time>2012-04-12T13:08:22Z</time>
      </trkpt>
      <trkpt lat="45.34715" lon="3.96591">
        <ele>964.5</ele>
        <time>2012-04-12T13:08:39Z</time>
      </trkpt>
      <trkpt lat="45.34715" lon="3.96591">
        <ele>964.5</ele>
        <time>2012-04-12T13:09:16Z</time>
      </trkpt>
      <trkpt lat="45.34717" lon="3.96589">
        <ele>966.1</ele>
        <time>2012-04-12T13:09:17Z</time>
      </trkpt>
      <trkpt lat="45.34731" lon="3.96588">
        <ele>964.6</ele>
        <time>2012-04-12T13:09:27Z</time>
      </trkpt>
      <trkpt lat="45.34731" lon="3.96588">
        <ele>964.5</ele>
        <time>2012-04-12T13:09:41Z</time>
      </trkpt>
      <trkpt lat="45.34731" lon="3.96588">
        <ele>964.5</ele>
        <time>2012-04-12T13:10:06Z</time>
      </trkpt>
      <trkpt lat="45.3474" lon="3.96586">
        <ele>966.3</ele>
        <time>2012-04-12T13:10:07Z</time>
      </trkpt>
      <trkpt lat="45.3474" lon="3.96586">
        <ele>964.7</ele>
        <time>2012-04-12T13:10:18Z</time>
      </trkpt>
      <trkpt lat="45.3474" lon="3.96586">
        <ele>964.7</ele>
        <time>2012-04-12T13:10:25Z</time>
      </trkpt>
      <trkpt lat="45.3474" lon="3.96594">
        <ele>967</ele>
        <time>2012-04-12T13:10:26Z</time>
      </trkpt>
      <trkpt lat="45.34726" lon="3.96605">
        <ele>969.9</ele>
        <time>2012-04-12T13:10:31Z</time>
      </trkpt>
      <trkpt lat="45.34712" lon="3.96607">
        <ele>968.9</ele>
        <time>2012-04-12T13:10:35Z</time>
      </trkpt>
      <trkpt lat="45.34679" lon="3.96603">
        <ele>969.5</ele>
        <time>2012-04-12T13:10:43Z</time>
      </trkpt>
      <trkpt lat="45.34653" lon="3.96576">
        <ele>964.3</ele>
        <time>2012-04-12T13:10:49Z</time>
      </trkpt>
      <trkpt lat="45.3463" lon="3.96543">
        <ele>966.8</ele>
        <time>2012-04-12T13:10:55Z</time>
      </trkpt>
      <trkpt lat="45.3461" lon="3.96507">
        <ele>965.9</ele>
        <time>2012-04-12T13:11:01Z</time>
      </trkpt>
      <trkpt lat="45.34592" lon="3.9647">
        <ele>969</ele>
        <time>2012-04-12T13:11:07Z</time>
      </trkpt>
      <trkpt lat="45.34582" lon="3.96451">
        <ele>966.7</ele>
        <time>2012-04-12T13:11:11Z</time>
      </trkpt>
      <trkpt lat="45.34556" lon="3.96419">
        <ele>965.4</ele>
        <time>2012-04-12T13:11:19Z</time>
      </trkpt>
      <trkpt lat="45.34531" lon="3.96389">
        <ele>970</ele>
        <time>2012-04-12T13:11:27Z</time>
      </trkpt>
      <trkpt lat="45.34522" lon="3.9637">
        <ele>970</ele>
        <time>2012-04-12T13:11:31Z</time>
      </trkpt>
      <trkpt lat="45.34512" lon="3.96349">
        <ele>968.7</ele>
        <time>2012-04-12T13:11:35Z</time>
      </trkpt>
      <trkpt lat="45.34503" lon="3.96328">
        <ele>968.2</ele>
        <time>2012-04-12T13:11:39Z</time>
      </trkpt>
      <trkpt lat="45.34482" lon="3.96292">
        <ele>967.9</ele>
        <time>2012-04-12T13:11:47Z</time>
      </trkpt>
      <trkpt lat="45.34465" lon="3.96285">
        <ele>969.3</ele>
        <time>2012-04-12T13:11:51Z</time>
      </trkpt>
      <trkpt lat="45.34432" lon="3.96268">
        <ele>968</ele>
        <time>2012-04-12T13:11:57Z</time>
      </trkpt>
      <trkpt lat="45.344" lon="3.96252">
        <ele>966.8</ele>
        <time>2012-04-12T13:12:03Z</time>
      </trkpt>
      <trkpt lat="45.3437" lon="3.9623">
        <ele>968.6</ele>
        <time>2012-04-12T13:12:09Z</time>
      </trkpt>
      <trkpt lat="45.34335" lon="3.96203">
        <ele>963.7</ele>
        <time>2012-04-12T13:12:15Z</time>
      </trkpt>
      <trkpt lat="45.34304" lon="3.96172">
        <ele>959.7</ele>
        <time>2012-04-12T13:12:21Z</time>
      </trkpt>
      <trkpt lat="45.34276" lon="3.96143">
        <ele>954.2</ele>
        <time>2012-04-12T13:12:27Z</time>
      </trkpt>
      <trkpt lat="45.34245" lon="3.96121">
        <ele>948.2</ele>
        <time>2012-04-12T13:12:33Z</time>
      </trkpt>
      <trkpt lat="45.34216" lon="3.96102">
        <ele>949.7</ele>
        <time>2012-04-12T13:12:39Z</time>
      </trkpt>
      <trkpt lat="45.34193" lon="3.96078">
        <ele>951.9</ele>
        <time>2012-04-12T13:12:45Z</time>
      </trkpt>
      <trkpt lat="45.34164" lon="3.96056">
        <ele>949.8</ele>
        <time>2012-04-12T13:12:51Z</time>
      </trkpt>
      <trkpt lat="45.34129" lon="3.96042">
        <ele>949.1</ele>
        <time>2012-04-12T13:12:57Z</time>
      </trkpt>
      <trkpt lat="45.3411" lon="3.96064">
        <ele>954</ele>
        <time>2012-04-12T13:13:03Z</time>
      </trkpt>
      <trkpt lat="45.34089" lon="3.96094">
        <ele>956.5</ele>
        <time>2012-04-12T13:13:09Z</time>
      </trkpt>
      <trkpt lat="45.34061" lon="3.96117">
        <ele>958.5</ele>
        <time>2012-04-12T13:13:15Z</time>
      </trkpt>
      <trkpt lat="45.34027" lon="3.96142">
        <ele>956</ele>
        <time>2012-04-12T13:13:21Z</time>
      </trkpt>
      <trkpt lat="45.33999" lon="3.96168">
        <ele>950</ele>
        <time>2012-04-12T13:13:27Z</time>
      </trkpt>
      <trkpt lat="45.33968" lon="3.96191">
        <ele>950.5</ele>
        <time>2012-04-12T13:13:32Z</time>
      </trkpt>
      <trkpt lat="45.33936" lon="3.96177">
        <ele>944.3</ele>
        <time>2012-04-12T13:13:37Z</time>
      </trkpt>
      <trkpt lat="45.33908" lon="3.96149">
        <ele>939.5</ele>
        <time>2012-04-12T13:13:41Z</time>
      </trkpt>
      <trkpt lat="45.33879" lon="3.9612">
        <ele>935</ele>
        <time>2012-04-12T13:13:45Z</time>
      </trkpt>
      <trkpt lat="45.33858" lon="3.96138">
        <ele>929</ele>
        <time>2012-04-12T13:13:52Z</time>
      </trkpt>
      <trkpt lat="45.33856" lon="3.96184">
        <ele>933.5</ele>
        <time>2012-04-12T13:13:58Z</time>
      </trkpt>
      <trkpt lat="45.33841" lon="3.96176">
        <ele>930</ele>
        <time>2012-04-12T13:14:05Z</time>
      </trkpt>
      <trkpt lat="45.33818" lon="3.96146">
        <ele>925.3</ele>
        <time>2012-04-12T13:14:12Z</time>
      </trkpt>
      <trkpt lat="45.33798" lon="3.96109">
        <ele>922.9</ele>
        <time>2012-04-12T13:14:19Z</time>
      </trkpt>
      <trkpt lat="45.33783" lon="3.96069">
        <ele>927.6</ele>
        <time>2012-04-12T13:14:25Z</time>
      </trkpt>
      <trkpt lat="45.33768" lon="3.9603">
        <ele>927</ele>
        <time>2012-04-12T13:14:31Z</time>
      </trkpt>
      <trkpt lat="45.33747" lon="3.95994">
        <ele>929</ele>
        <time>2012-04-12T13:14:39Z</time>
      </trkpt>
      <trkpt lat="45.33726" lon="3.95964">
        <ele>923.4</ele>
        <time>2012-04-12T13:14:45Z</time>
      </trkpt>
      <trkpt lat="45.33698" lon="3.95931">
        <ele>924.7</ele>
        <time>2012-04-12T13:14:51Z</time>
      </trkpt>
      <trkpt lat="45.3367" lon="3.95898">
        <ele>915.7</ele>
        <time>2012-04-12T13:14:56Z</time>
      </trkpt>
      <trkpt lat="45.33637" lon="3.95846">
        <ele>905.2</ele>
        <time>2012-04-12T13:15:02Z</time>
      </trkpt>
      <trkpt lat="45.33613" lon="3.95793">
        <ele>899.3</ele>
        <time>2012-04-12T13:15:09Z</time>
      </trkpt>
      <trkpt lat="45.33587" lon="3.95814">
        <ele>911.3</ele>
        <time>2012-04-12T13:15:16Z</time>
      </trkpt>
      <trkpt lat="45.3356" lon="3.95833">
        <ele>921.6</ele>
        <time>2012-04-12T13:15:22Z</time>
      </trkpt>
      <trkpt lat="45.33543" lon="3.95843">
        <ele>919.5</ele>
        <time>2012-04-12T13:15:26Z</time>
      </trkpt>
      <trkpt lat="45.33515" lon="3.95859">
        <ele>918.2</ele>
        <time>2012-04-12T13:15:32Z</time>
      </trkpt>
      <trkpt lat="45.33486" lon="3.95873">
        <ele>913.8</ele>
        <time>2012-04-12T13:15:38Z</time>
      </trkpt>
      <trkpt lat="45.33457" lon="3.95882">
        <ele>917.6</ele>
        <time>2012-04-12T13:15:44Z</time>
      </trkpt>
      <trkpt lat="45.33427" lon="3.95892">
        <ele>918.5</ele>
        <time>2012-04-12T13:15:50Z</time>
      </trkpt>
      <trkpt lat="45.33398" lon="3.95908">
        <ele>916.6</ele>
        <time>2012-04-12T13:15:56Z</time>
      </trkpt>
      <trkpt lat="45.33371" lon="3.95929">
        <ele>917.9</ele>
        <time>2012-04-12T13:16:02Z</time>
      </trkpt>
      <trkpt lat="45.33341" lon="3.9595">
        <ele>916.5</ele>
        <time>2012-04-12T13:16:09Z</time>
      </trkpt>
      <trkpt lat="45.33312" lon="3.95962">
        <ele>916.3</ele>
        <time>2012-04-12T13:16:15Z</time>
      </trkpt>
      <trkpt lat="45.33278" lon="3.95976">
        <ele>920.6</ele>
        <time>2012-04-12T13:16:21Z</time>
      </trkpt>
      <trkpt lat="45.33246" lon="3.95988">
        <ele>916.9</ele>
        <time>2012-04-12T13:16:26Z</time>
      </trkpt>
      <trkpt lat="45.33214" lon="3.95999">
        <ele>914.6</ele>
        <time>2012-04-12T13:16:30Z</time>
      </trkpt>
      <trkpt lat="45.33183" lon="3.96008">
        <ele>913.7</ele>
        <time>2012-04-12T13:16:34Z</time>
      </trkpt>
      <trkpt lat="45.33132" lon="3.96012">
        <ele>911.9</ele>
        <time>2012-04-12T13:16:40Z</time>
      </trkpt>
      <trkpt lat="45.33097" lon="3.96016">
        <ele>908.6</ele>
        <time>2012-04-12T13:16:44Z</time>
      </trkpt>
      <trkpt lat="45.33044" lon="3.96036">
        <ele>904.8</ele>
        <time>2012-04-12T13:16:50Z</time>
      </trkpt>
      <trkpt lat="45.33016" lon="3.96053">
        <ele>907</ele>
        <time>2012-04-12T13:16:54Z</time>
      </trkpt>
      <trkpt lat="45.32972" lon="3.96081">
        <ele>900.8</ele>
        <time>2012-04-12T13:17:00Z</time>
      </trkpt>
      <trkpt lat="45.3293" lon="3.96107">
        <ele>894.8</ele>
        <time>2012-04-12T13:17:06Z</time>
      </trkpt>
      <trkpt lat="45.32878" lon="3.96117">
        <ele>890.1</ele>
        <time>2012-04-12T13:17:12Z</time>
      </trkpt>
      <trkpt lat="45.32848" lon="3.96109">
        <ele>886.4</ele>
        <time>2012-04-12T13:17:17Z</time>
      </trkpt>
      <trkpt lat="45.3283" lon="3.9615">
        <ele>881.7</ele>
        <time>2012-04-12T13:17:23Z</time>
      </trkpt>
      <trkpt lat="45.32831" lon="3.96188">
        <ele>881.2</ele>
        <time>2012-04-12T13:17:29Z</time>
      </trkpt>
      <trkpt lat="45.32831" lon="3.96188">
        <ele>873.4</ele>
        <time>2012-04-12T13:17:47Z</time>
      </trkpt>
      <trkpt lat="45.32831" lon="3.96188">
        <ele>873.4</ele>
        <time>2012-04-12T13:17:56Z</time>
      </trkpt>
      <trkpt lat="45.32821" lon="3.9621">
        <ele>882.3</ele>
        <time>2012-04-12T13:17:57Z</time>
      </trkpt>
      <trkpt lat="45.32791" lon="3.96226">
        <ele>882.7</ele>
        <time>2012-04-12T13:18:03Z</time>
      </trkpt>
      <trkpt lat="45.32759" lon="3.96244">
        <ele>878.3</ele>
        <time>2012-04-12T13:18:09Z</time>
      </trkpt>
      <trkpt lat="45.32736" lon="3.96269">
        <ele>876.4</ele>
        <time>2012-04-12T13:18:13Z</time>
      </trkpt>
      <trkpt lat="45.3271" lon="3.96294">
        <ele>874.7</ele>
        <time>2012-04-12T13:18:17Z</time>
      </trkpt>
      <trkpt lat="45.32681" lon="3.96358">
        <ele>862.8</ele>
        <time>2012-04-12T13:18:23Z</time>
      </trkpt>
      <trkpt lat="45.3266" lon="3.96402">
        <ele>860.9</ele>
        <time>2012-04-12T13:18:27Z</time>
      </trkpt>
      <trkpt lat="45.3262" lon="3.9644">
        <ele>863.7</ele>
        <time>2012-04-12T13:18:33Z</time>
      </trkpt>
      <trkpt lat="45.32573" lon="3.96445">
        <ele>864.4</ele>
        <time>2012-04-12T13:18:39Z</time>
      </trkpt>
      <trkpt lat="45.32534" lon="3.96449">
        <ele>859.4</ele>
        <time>2012-04-12T13:18:45Z</time>
      </trkpt>
      <trkpt lat="45.32498" lon="3.96457">
        <ele>857.5</ele>
        <time>2012-04-12T13:18:51Z</time>
      </trkpt>
      <trkpt lat="45.32468" lon="3.96466">
        <ele>857.5</ele>
        <time>2012-04-12T13:18:57Z</time>
      </trkpt>
      <trkpt lat="45.32435" lon="3.96485">
        <ele>854.3</ele>
        <time>2012-04-12T13:19:03Z</time>
      </trkpt>
      <trkpt lat="45.32405" lon="3.96507">
        <ele>854.3</ele>
        <time>2012-04-12T13:19:09Z</time>
      </trkpt>
      <trkpt lat="45.32377" lon="3.96527">
        <ele>852.3</ele>
        <time>2012-04-12T13:19:15Z</time>
      </trkpt>
      <trkpt lat="45.32348" lon="3.96552">
        <ele>848.3</ele>
        <time>2012-04-12T13:19:21Z</time>
      </trkpt>
      <trkpt lat="45.32324" lon="3.96573">
        <ele>849.9</ele>
        <time>2012-04-12T13:19:27Z</time>
      </trkpt>
      <trkpt lat="45.32298" lon="3.96592">
        <ele>852.9</ele>
        <time>2012-04-12T13:19:33Z</time>
      </trkpt>
      <trkpt lat="45.32269" lon="3.96598">
        <ele>846.2</ele>
        <time>2012-04-12T13:19:47Z</time>
      </trkpt>
      <trkpt lat="45.32256" lon="3.96595">
        <ele>850.9</ele>
        <time>2012-04-12T13:19:51Z</time>
      </trkpt>
      <trkpt lat="45.32222" lon="3.96594">
        <ele>853.7</ele>
        <time>2012-04-12T13:19:59Z</time>
      </trkpt>
      <trkpt lat="45.3219" lon="3.96582">
        <ele>849.4</ele>
        <time>2012-04-12T13:20:05Z</time>
      </trkpt>
      <trkpt lat="45.32178" lon="3.96594">
        <ele>851.4</ele>
        <time>2012-04-12T13:20:11Z</time>
      </trkpt>
      <trkpt lat="45.32175" lon="3.96633">
        <ele>847.1</ele>
        <time>2012-04-12T13:20:17Z</time>
      </trkpt>
      <trkpt lat="45.3217" lon="3.96657">
        <ele>848.5</ele>
        <time>2012-04-12T13:20:21Z</time>
      </trkpt>
      <trkpt lat="45.32146" lon="3.96688">
        <ele>848.5</ele>
        <time>2012-04-12T13:20:29Z</time>
      </trkpt>
      <trkpt lat="45.32125" lon="3.96717">
        <ele>842.8</ele>
        <time>2012-04-12T13:20:37Z</time>
      </trkpt>
      <trkpt lat="45.32118" lon="3.96757">
        <ele>843.9</ele>
        <time>2012-04-12T13:20:45Z</time>
      </trkpt>
      <trkpt lat="45.32117" lon="3.9678">
        <ele>846.2</ele>
        <time>2012-04-12T13:20:49Z</time>
      </trkpt>
      <trkpt lat="45.32119" lon="3.96805">
        <ele>848.7</ele>
        <time>2012-04-12T13:20:53Z</time>
      </trkpt>
      <trkpt lat="45.32122" lon="3.96826">
        <ele>850.6</ele>
        <time>2012-04-12T13:20:57Z</time>
      </trkpt>
      <trkpt lat="45.32124" lon="3.96849">
        <ele>851</ele>
        <time>2012-04-12T13:21:02Z</time>
      </trkpt>
      <trkpt lat="45.32124" lon="3.96849">
        <ele>845.6</ele>
        <time>2012-04-12T13:21:14Z</time>
      </trkpt>
      <trkpt lat="45.32124" lon="3.96849">
        <ele>845.6</ele>
        <time>2012-04-12T13:21:45Z</time>
      </trkpt>
      <trkpt lat="45.3212" lon="3.96838">
        <ele>849.9</ele>
        <time>2012-04-12T13:21:46Z</time>
      </trkpt>
      <trkpt lat="45.32105" lon="3.96801">
        <ele>846.9</ele>
        <time>2012-04-12T13:21:54Z</time>
      </trkpt>
      <trkpt lat="45.32094" lon="3.96784">
        <ele>847.6</ele>
        <time>2012-04-12T13:21:58Z</time>
      </trkpt>
      <trkpt lat="45.3207" lon="3.96753">
        <ele>846.6</ele>
        <time>2012-04-12T13:22:06Z</time>
      </trkpt>
      <trkpt lat="45.32046" lon="3.96722">
        <ele>846.1</ele>
        <time>2012-04-12T13:22:12Z</time>
      </trkpt>
      <trkpt lat="45.32024" lon="3.9669">
        <ele>838</ele>
        <time>2012-04-12T13:22:18Z</time>
      </trkpt>
      <trkpt lat="45.32004" lon="3.96655">
        <ele>839.1</ele>
        <time>2012-04-12T13:22:26Z</time>
      </trkpt>
      <trkpt lat="45.31981" lon="3.96633">
        <ele>845.9</ele>
        <time>2012-04-12T13:22:34Z</time>
      </trkpt>
      <trkpt lat="45.31969" lon="3.9662">
        <ele>843.6</ele>
        <time>2012-04-12T13:22:41Z</time>
      </trkpt>
      <trkpt lat="45.31957" lon="3.96605">
        <ele>840.4</ele>
        <time>2012-04-12T13:22:47Z</time>
      </trkpt>
      <trkpt lat="45.31945" lon="3.96592">
        <ele>841.2</ele>
        <time>2012-04-12T13:22:54Z</time>
      </trkpt>
      <trkpt lat="45.31934" lon="3.96579">
        <ele>845.4</ele>
        <time>2012-04-12T13:23:01Z</time>
      </trkpt>
      <trkpt lat="45.31924" lon="3.96567">
        <ele>849.9</ele>
        <time>2012-04-12T13:23:08Z</time>
      </trkpt>
      <trkpt lat="45.31912" lon="3.96556">
        <ele>856.6</ele>
        <time>2012-04-12T13:23:16Z</time>
      </trkpt>
      <trkpt lat="45.31899" lon="3.96547">
        <ele>855.2</ele>
        <time>2012-04-12T13:23:23Z</time>
      </trkpt>
      <trkpt lat="45.31886" lon="3.96536">
        <ele>852.2</ele>
        <time>2012-04-12T13:23:31Z</time>
      </trkpt>
      <trkpt lat="45.31875" lon="3.96522">
        <ele>849.9</ele>
        <time>2012-04-12T13:23:38Z</time>
      </trkpt>
      <trkpt lat="45.31866" lon="3.96508">
        <ele>858.6</ele>
        <time>2012-04-12T13:23:46Z</time>
      </trkpt>
      <trkpt lat="45.31858" lon="3.96492">
        <ele>861.3</ele>
        <time>2012-04-12T13:23:54Z</time>
      </trkpt>
      <trkpt lat="45.31851" lon="3.96475">
        <ele>860.6</ele>
        <time>2012-04-12T13:24:02Z</time>
      </trkpt>
      <trkpt lat="45.31842" lon="3.96459">
        <ele>865.2</ele>
        <time>2012-04-12T13:24:10Z</time>
      </trkpt>
      <trkpt lat="45.31832" lon="3.96445">
        <ele>868.1</ele>
        <time>2012-04-12T13:24:18Z</time>
      </trkpt>
      <trkpt lat="45.31818" lon="3.96439">
        <ele>870.2</ele>
        <time>2012-04-12T13:24:25Z</time>
      </trkpt>
      <trkpt lat="45.31804" lon="3.96433">
        <ele>872.8</ele>
        <time>2012-04-12T13:24:32Z</time>
      </trkpt>
      <trkpt lat="45.31789" lon="3.96431">
        <ele>873.6</ele>
        <time>2012-04-12T13:24:39Z</time>
      </trkpt>
      <trkpt lat="45.31775" lon="3.96431">
        <ele>875.4</ele>
        <time>2012-04-12T13:24:45Z</time>
      </trkpt>
      <trkpt lat="45.3176" lon="3.96431">
        <ele>874.1</ele>
        <time>2012-04-12T13:24:52Z</time>
      </trkpt>
      <trkpt lat="45.31745" lon="3.96431">
        <ele>875.1</ele>
        <time>2012-04-12T13:24:59Z</time>
      </trkpt>
      <trkpt lat="45.3173" lon="3.96432">
        <ele>876.3</ele>
        <time>2012-04-12T13:25:06Z</time>
      </trkpt>
      <trkpt lat="45.31716" lon="3.96431">
        <ele>874.2</ele>
        <time>2012-04-12T13:25:14Z</time>
      </trkpt>
      <trkpt lat="45.31701" lon="3.96433">
        <ele>877.9</ele>
        <time>2012-04-12T13:25:21Z</time>
      </trkpt>
      <trkpt lat="45.31686" lon="3.96434">
        <ele>878.3</ele>
        <time>2012-04-12T13:25:28Z</time>
      </trkpt>
      <trkpt lat="45.31672" lon="3.9643">
        <ele>879.4</ele>
        <time>2012-04-12T13:25:35Z</time>
      </trkpt>
      <trkpt lat="45.31659" lon="3.96417">
        <ele>877.1</ele>
        <time>2012-04-12T13:25:42Z</time>
      </trkpt>
      <trkpt lat="45.31646" lon="3.96407">
        <ele>880.9</ele>
        <time>2012-04-12T13:25:48Z</time>
      </trkpt>
      <trkpt lat="45.31632" lon="3.964">
        <ele>879.2</ele>
        <time>2012-04-12T13:25:54Z</time>
      </trkpt>
      <trkpt lat="45.31619" lon="3.96392">
        <ele>880.2</ele>
        <time>2012-04-12T13:25:59Z</time>
      </trkpt>
      <trkpt lat="45.31606" lon="3.96384">
        <ele>879.8</ele>
        <time>2012-04-12T13:26:04Z</time>
      </trkpt>
      <trkpt lat="45.31594" lon="3.96377">
        <ele>880.5</ele>
        <time>2012-04-12T13:26:09Z</time>
      </trkpt>
      <trkpt lat="45.31581" lon="3.96369">
        <ele>881.1</ele>
        <time>2012-04-12T13:26:14Z</time>
      </trkpt>
      <trkpt lat="45.31566" lon="3.96361">
        <ele>883.4</ele>
        <time>2012-04-12T13:26:20Z</time>
      </trkpt>
      <trkpt lat="45.3155" lon="3.9636">
        <ele>886.1</ele>
        <time>2012-04-12T13:26:26Z</time>
      </trkpt>
      <trkpt lat="45.31537" lon="3.96363">
        <ele>887.9</ele>
        <time>2012-04-12T13:26:31Z</time>
      </trkpt>
      <trkpt lat="45.31521" lon="3.96365">
        <ele>888.9</ele>
        <time>2012-04-12T13:26:37Z</time>
      </trkpt>
      <trkpt lat="45.31507" lon="3.96369">
        <ele>887.4</ele>
        <time>2012-04-12T13:26:42Z</time>
      </trkpt>
      <trkpt lat="45.31479" lon="3.96372">
        <ele>890.4</ele>
        <time>2012-04-12T13:26:50Z</time>
      </trkpt>
      <trkpt lat="45.31465" lon="3.96373">
        <ele>889.4</ele>
        <time>2012-04-12T13:26:54Z</time>
      </trkpt>
      <trkpt lat="45.31451" lon="3.96373">
        <ele>891.2</ele>
        <time>2012-04-12T13:26:58Z</time>
      </trkpt>
      <trkpt lat="45.31435" lon="3.96373">
        <ele>891</ele>
        <time>2012-04-12T13:27:03Z</time>
      </trkpt>
      <trkpt lat="45.31419" lon="3.96371">
        <ele>890.4</ele>
        <time>2012-04-12T13:27:08Z</time>
      </trkpt>
      <trkpt lat="45.31404" lon="3.96369">
        <ele>893.3</ele>
        <time>2012-04-12T13:27:13Z</time>
      </trkpt>
      <trkpt lat="45.31389" lon="3.96368">
        <ele>896.3</ele>
        <time>2012-04-12T13:27:18Z</time>
      </trkpt>
      <trkpt lat="45.31375" lon="3.96367">
        <ele>896.7</ele>
        <time>2012-04-12T13:27:23Z</time>
      </trkpt>
      <trkpt lat="45.31361" lon="3.96368">
        <ele>897.8</ele>
        <time>2012-04-12T13:27:28Z</time>
      </trkpt>
      <trkpt lat="45.31346" lon="3.96368">
        <ele>899.8</ele>
        <time>2012-04-12T13:27:33Z</time>
      </trkpt>
      <trkpt lat="45.31331" lon="3.9637">
        <ele>900.9</ele>
        <time>2012-04-12T13:27:38Z</time>
      </trkpt>
      <trkpt lat="45.31314" lon="3.96373">
        <ele>902.3</ele>
        <time>2012-04-12T13:27:43Z</time>
      </trkpt>
      <trkpt lat="45.313" lon="3.96375">
        <ele>903.7</ele>
        <time>2012-04-12T13:27:47Z</time>
      </trkpt>
      <trkpt lat="45.31284" lon="3.96377">
        <ele>902.9</ele>
        <time>2012-04-12T13:27:52Z</time>
      </trkpt>
      <trkpt lat="45.31269" lon="3.96379">
        <ele>901.8</ele>
        <time>2012-04-12T13:27:57Z</time>
      </trkpt>
      <trkpt lat="45.31252" lon="3.96379">
        <ele>903</ele>
        <time>2012-04-12T13:28:02Z</time>
      </trkpt>
      <trkpt lat="45.31223" lon="3.96376">
        <ele>900.2</ele>
        <time>2012-04-12T13:28:10Z</time>
      </trkpt>
      <trkpt lat="45.31207" lon="3.96372">
        <ele>900.4</ele>
        <time>2012-04-12T13:28:14Z</time>
      </trkpt>
      <trkpt lat="45.31178" lon="3.96363">
        <ele>901.7</ele>
        <time>2012-04-12T13:28:22Z</time>
      </trkpt>
      <trkpt lat="45.31148" lon="3.96352">
        <ele>901.7</ele>
        <time>2012-04-12T13:28:30Z</time>
      </trkpt>
      <trkpt lat="45.31141" lon="3.96333">
        <ele>898.4</ele>
        <time>2012-04-12T13:28:34Z</time>
      </trkpt>
      <trkpt lat="45.31136" lon="3.96314">
        <ele>897.2</ele>
        <time>2012-04-12T13:28:38Z</time>
      </trkpt>
      <trkpt lat="45.31122" lon="3.963">
        <ele>897</ele>
        <time>2012-04-12T13:28:43Z</time>
      </trkpt>
      <trkpt lat="45.31093" lon="3.96286">
        <ele>904.5</ele>
        <time>2012-04-12T13:28:51Z</time>
      </trkpt>
      <trkpt lat="45.31064" lon="3.96271">
        <ele>902.3</ele>
        <time>2012-04-12T13:28:59Z</time>
      </trkpt>
      <trkpt lat="45.31033" lon="3.96261">
        <ele>900.6</ele>
        <time>2012-04-12T13:29:07Z</time>
      </trkpt>
      <trkpt lat="45.31003" lon="3.9626">
        <ele>903.7</ele>
        <time>2012-04-12T13:29:14Z</time>
      </trkpt>
      <trkpt lat="45.30973" lon="3.96269">
        <ele>907.5</ele>
        <time>2012-04-12T13:29:22Z</time>
      </trkpt>
      <trkpt lat="45.3096" lon="3.96275">
        <ele>907.9</ele>
        <time>2012-04-12T13:29:27Z</time>
      </trkpt>
      <trkpt lat="45.30946" lon="3.96283">
        <ele>908.9</ele>
        <time>2012-04-12T13:29:34Z</time>
      </trkpt>
      <trkpt lat="45.30921" lon="3.96305">
        <ele>903.8</ele>
        <time>2012-04-12T13:29:39Z</time>
      </trkpt>
      <trkpt lat="45.30876" lon="3.96333">
        <ele>899.8</ele>
        <time>2012-04-12T13:29:45Z</time>
      </trkpt>
      <trkpt lat="45.30826" lon="3.96367">
        <ele>898.7</ele>
        <time>2012-04-12T13:29:51Z</time>
      </trkpt>
      <trkpt lat="45.30791" lon="3.96384">
        <ele>898.1</ele>
        <time>2012-04-12T13:29:55Z</time>
      </trkpt>
      <trkpt lat="45.30731" lon="3.96415">
        <ele>881.6</ele>
        <time>2012-04-12T13:30:01Z</time>
      </trkpt>
      <trkpt lat="45.30691" lon="3.96429">
        <ele>883.4</ele>
        <time>2012-04-12T13:30:05Z</time>
      </trkpt>
      <trkpt lat="45.30641" lon="3.96455">
        <ele>883.4</ele>
        <time>2012-04-12T13:30:11Z</time>
      </trkpt>
      <trkpt lat="45.30596" lon="3.96488">
        <ele>874.3</ele>
        <time>2012-04-12T13:30:17Z</time>
      </trkpt>
      <trkpt lat="45.30547" lon="3.96509">
        <ele>871.7</ele>
        <time>2012-04-12T13:30:23Z</time>
      </trkpt>
      <trkpt lat="45.30516" lon="3.96533">
        <ele>873.3</ele>
        <time>2012-04-12T13:30:27Z</time>
      </trkpt>
      <trkpt lat="45.30489" lon="3.9656">
        <ele>871.1</ele>
        <time>2012-04-12T13:30:31Z</time>
      </trkpt>
      <trkpt lat="45.30466" lon="3.96594">
        <ele>867.9</ele>
        <time>2012-04-12T13:30:35Z</time>
      </trkpt>
      <trkpt lat="45.30429" lon="3.96652">
        <ele>863.4</ele>
        <time>2012-04-12T13:30:41Z</time>
      </trkpt>
      <trkpt lat="45.30392" lon="3.9669">
        <ele>857.1</ele>
        <time>2012-04-12T13:30:45Z</time>
      </trkpt>
      <trkpt lat="45.30355" lon="3.96723">
        <ele>855.6</ele>
        <time>2012-04-12T13:30:49Z</time>
      </trkpt>
      <trkpt lat="45.30292" lon="3.9677">
        <ele>849.6</ele>
        <time>2012-04-12T13:30:55Z</time>
      </trkpt>
      <trkpt lat="45.30263" lon="3.96812">
        <ele>845.1</ele>
        <time>2012-04-12T13:30:59Z</time>
      </trkpt>
      <trkpt lat="45.30237" lon="3.96862">
        <ele>841.5</ele>
        <time>2012-04-12T13:31:03Z</time>
      </trkpt>
      <trkpt lat="45.30187" lon="3.96903">
        <ele>837.3</ele>
        <time>2012-04-12T13:31:09Z</time>
      </trkpt>
      <trkpt lat="45.30154" lon="3.96929">
        <ele>839.5</ele>
        <time>2012-04-12T13:31:13Z</time>
      </trkpt>
      <trkpt lat="45.30125" lon="3.9697">
        <ele>839.6</ele>
        <time>2012-04-12T13:31:17Z</time>
      </trkpt>
      <trkpt lat="45.30081" lon="3.97004">
        <ele>833.9</ele>
        <time>2012-04-12T13:31:23Z</time>
      </trkpt>
      <trkpt lat="45.3005" lon="3.97018">
        <ele>831.5</ele>
        <time>2012-04-12T13:31:27Z</time>
      </trkpt>
      <trkpt lat="45.30021" lon="3.97027">
        <ele>831.2</ele>
        <time>2012-04-12T13:31:31Z</time>
      </trkpt>
      <trkpt lat="45.29989" lon="3.97039">
        <ele>831</ele>
        <time>2012-04-12T13:31:36Z</time>
      </trkpt>
      <trkpt lat="45.29945" lon="3.97055">
        <ele>832.3</ele>
        <time>2012-04-12T13:31:42Z</time>
      </trkpt>
      <trkpt lat="45.29894" lon="3.97066">
        <ele>822</ele>
        <time>2012-04-12T13:31:48Z</time>
      </trkpt>
      <trkpt lat="45.29861" lon="3.97059">
        <ele>820.5</ele>
        <time>2012-04-12T13:31:52Z</time>
      </trkpt>
      <trkpt lat="45.29805" lon="3.97069">
        <ele>814.7</ele>
        <time>2012-04-12T13:31:58Z</time>
      </trkpt>
      <trkpt lat="45.29765" lon="3.97093">
        <ele>812.9</ele>
        <time>2012-04-12T13:32:02Z</time>
      </trkpt>
      <trkpt lat="45.29733" lon="3.97126">
        <ele>809.6</ele>
        <time>2012-04-12T13:32:06Z</time>
      </trkpt>
      <trkpt lat="45.29688" lon="3.97172">
        <ele>799.4</ele>
        <time>2012-04-12T13:32:12Z</time>
      </trkpt>
      <trkpt lat="45.29659" lon="3.97227">
        <ele>792.7</ele>
        <time>2012-04-12T13:32:18Z</time>
      </trkpt>
      <trkpt lat="45.29649" lon="3.97271">
        <ele>790.4</ele>
        <time>2012-04-12T13:32:22Z</time>
      </trkpt>
      <trkpt lat="45.29615" lon="3.97319">
        <ele>790.1</ele>
        <time>2012-04-12T13:32:28Z</time>
      </trkpt>
      <trkpt lat="45.29588" lon="3.97347">
        <ele>785.5</ele>
        <time>2012-04-12T13:32:32Z</time>
      </trkpt>
      <trkpt lat="45.29549" lon="3.97383">
        <ele>777</ele>
        <time>2012-04-12T13:32:38Z</time>
      </trkpt>
      <trkpt lat="45.29521" lon="3.97401">
        <ele>771.3</ele>
        <time>2012-04-12T13:32:43Z</time>
      </trkpt>
      <trkpt lat="45.29506" lon="3.97406">
        <ele>768.4</ele>
        <time>2012-04-12T13:32:48Z</time>
      </trkpt>
      <trkpt lat="45.29488" lon="3.97399">
        <ele>759.7</ele>
        <time>2012-04-12T13:32:52Z</time>
      </trkpt>
      <trkpt lat="45.29464" lon="3.97426">
        <ele>752.9</ele>
        <time>2012-04-12T13:33:00Z</time>
      </trkpt>
      <trkpt lat="45.2945" lon="3.97421">
        <ele>752.3</ele>
        <time>2012-04-12T13:33:04Z</time>
      </trkpt>
      <trkpt lat="45.29437" lon="3.97408">
        <ele>748.4</ele>
        <time>2012-04-12T13:33:09Z</time>
      </trkpt>
      <trkpt lat="45.29423" lon="3.97404">
        <ele>745.4</ele>
        <time>2012-04-12T13:33:13Z</time>
      </trkpt>
      <trkpt lat="45.2939" lon="3.97395">
        <ele>735.4</ele>
        <time>2012-04-12T13:33:21Z</time>
      </trkpt>
      <trkpt lat="45.29376" lon="3.97392">
        <ele>732.8</ele>
        <time>2012-04-12T13:33:25Z</time>
      </trkpt>
      <trkpt lat="45.2936" lon="3.97386">
        <ele>734.7</ele>
        <time>2012-04-12T13:33:30Z</time>
      </trkpt>
      <trkpt lat="45.29326" lon="3.97378">
        <ele>727.8</ele>
        <time>2012-04-12T13:33:38Z</time>
      </trkpt>
      <trkpt lat="45.29292" lon="3.97374">
        <ele>724.7</ele>
        <time>2012-04-12T13:33:44Z</time>
      </trkpt>
      <trkpt lat="45.29262" lon="3.97362">
        <ele>715</ele>
        <time>2012-04-12T13:33:51Z</time>
      </trkpt>
      <trkpt lat="45.29247" lon="3.97362">
        <ele>710.6</ele>
        <time>2012-04-12T13:33:55Z</time>
      </trkpt>
      <trkpt lat="45.29233" lon="3.97369">
        <ele>709.9</ele>
        <time>2012-04-12T13:34:01Z</time>
      </trkpt>
      <trkpt lat="45.29233" lon="3.97369">
        <ele>701.9</ele>
        <time>2012-04-12T13:34:11Z</time>
      </trkpt>
      <trkpt lat="45.29233" lon="3.97369">
        <ele>701.9</ele>
        <time>2012-04-12T13:34:16Z</time>
      </trkpt>
      <trkpt lat="45.29226" lon="3.97372">
        <ele>715.6</ele>
        <time>2012-04-12T13:34:17Z</time>
      </trkpt>
      <trkpt lat="45.2921" lon="3.9738">
        <ele>707.7</ele>
        <time>2012-04-12T13:34:23Z</time>
      </trkpt>
      <trkpt lat="45.29196" lon="3.97386">
        <ele>705.9</ele>
        <time>2012-04-12T13:34:27Z</time>
      </trkpt>
      <trkpt lat="45.29163" lon="3.97386">
        <ele>696.9</ele>
        <time>2012-04-12T13:34:36Z</time>
      </trkpt>
      <trkpt lat="45.29146" lon="3.97391">
        <ele>687.5</ele>
        <time>2012-04-12T13:34:40Z</time>
      </trkpt>
      <trkpt lat="45.29119" lon="3.97403">
        <ele>681.5</ele>
        <time>2012-04-12T13:34:46Z</time>
      </trkpt>
      <trkpt lat="45.29094" lon="3.97426">
        <ele>676.3</ele>
        <time>2012-04-12T13:34:53Z</time>
      </trkpt>
      <trkpt lat="45.29082" lon="3.97439">
        <ele>671.6</ele>
        <time>2012-04-12T13:34:57Z</time>
      </trkpt>
      <trkpt lat="45.29068" lon="3.97447">
        <ele>666.3</ele>
        <time>2012-04-12T13:35:02Z</time>
      </trkpt>
      <trkpt lat="45.29053" lon="3.97448">
        <ele>669.8</ele>
        <time>2012-04-12T13:35:08Z</time>
      </trkpt>
      <trkpt lat="45.29039" lon="3.97453">
        <ele>669.4</ele>
        <time>2012-04-12T13:35:13Z</time>
      </trkpt>
      <trkpt lat="45.29025" lon="3.97456">
        <ele>672.1</ele>
        <time>2012-04-12T13:35:18Z</time>
      </trkpt>
      <trkpt lat="45.29009" lon="3.97454">
        <ele>673.9</ele>
        <time>2012-04-12T13:35:23Z</time>
      </trkpt>
      <trkpt lat="45.28995" lon="3.97456">
        <ele>674.6</ele>
        <time>2012-04-12T13:35:30Z</time>
      </trkpt>
      <trkpt lat="45.28981" lon="3.97467">
        <ele>670.6</ele>
        <time>2012-04-12T13:35:36Z</time>
      </trkpt>
      <trkpt lat="45.28966" lon="3.97461">
        <ele>670.5</ele>
        <time>2012-04-12T13:35:41Z</time>
      </trkpt>
      <trkpt lat="45.28953" lon="3.97453">
        <ele>667.3</ele>
        <time>2012-04-12T13:35:45Z</time>
      </trkpt>
      <trkpt lat="45.28924" lon="3.97442">
        <ele>664.7</ele>
        <time>2012-04-12T13:35:52Z</time>
      </trkpt>
      <trkpt lat="45.28895" lon="3.97441">
        <ele>658.3</ele>
        <time>2012-04-12T13:35:59Z</time>
      </trkpt>
      <trkpt lat="45.28864" lon="3.97448">
        <ele>650</ele>
        <time>2012-04-12T13:36:09Z</time>
      </trkpt>
      <trkpt lat="45.28849" lon="3.97451">
        <ele>651</ele>
        <time>2012-04-12T13:36:14Z</time>
      </trkpt>
      <trkpt lat="45.28835" lon="3.97454">
        <ele>656.1</ele>
        <time>2012-04-12T13:36:24Z</time>
      </trkpt>
      <trkpt lat="45.28821" lon="3.97457">
        <ele>656.7</ele>
        <time>2012-04-12T13:36:31Z</time>
      </trkpt>
      <trkpt lat="45.28808" lon="3.97462">
        <ele>653.3</ele>
        <time>2012-04-12T13:36:38Z</time>
      </trkpt>
      <trkpt lat="45.28808" lon="3.97462">
        <ele>631.9</ele>
        <time>2012-04-12T13:36:51Z</time>
      </trkpt>
      <trkpt lat="45.28808" lon="3.97462">
        <ele>631.9</ele>
        <time>2012-04-12T13:37:01Z</time>
      </trkpt>
      <trkpt lat="45.28791" lon="3.97463">
        <ele>663.2</ele>
        <time>2012-04-12T13:37:02Z</time>
      </trkpt>
      <trkpt lat="45.28775" lon="3.97458">
        <ele>650.2</ele>
        <time>2012-04-12T13:37:07Z</time>
      </trkpt>
      <trkpt lat="45.28761" lon="3.97454">
        <ele>650.2</ele>
        <time>2012-04-12T13:37:15Z</time>
      </trkpt>
      <trkpt lat="45.28746" lon="3.97452">
        <ele>651.7</ele>
        <time>2012-04-12T13:37:24Z</time>
      </trkpt>
      <trkpt lat="45.28733" lon="3.97456">
        <ele>650.3</ele>
        <time>2012-04-12T13:37:33Z</time>
      </trkpt>
      <trkpt lat="45.28719" lon="3.97466">
        <ele>649.8</ele>
        <time>2012-04-12T13:37:41Z</time>
      </trkpt>
      <trkpt lat="45.28708" lon="3.97481">
        <ele>658.7</ele>
        <time>2012-04-12T13:37:47Z</time>
      </trkpt>
      <trkpt lat="45.28708" lon="3.97481">
        <ele>635.2</ele>
        <time>2012-04-12T13:38:00Z</time>
      </trkpt>
      <trkpt lat="45.28708" lon="3.97481">
        <ele>635.2</ele>
        <time>2012-04-12T13:38:07Z</time>
      </trkpt>
      <trkpt lat="45.28704" lon="3.97492">
        <ele>666.1</ele>
        <time>2012-04-12T13:38:08Z</time>
      </trkpt>
      <trkpt lat="45.28694" lon="3.97506">
        <ele>662.8</ele>
        <time>2012-04-12T13:38:23Z</time>
      </trkpt>
      <trkpt lat="45.28686" lon="3.97522">
        <ele>656.5</ele>
        <time>2012-04-12T13:38:32Z</time>
      </trkpt>
      <trkpt lat="45.28679" lon="3.97541">
        <ele>650.8</ele>
        <time>2012-04-12T13:38:37Z</time>
      </trkpt>
      <trkpt lat="45.28678" lon="3.9756">
        <ele>648.1</ele>
        <time>2012-04-12T13:38:44Z</time>
      </trkpt>
      <trkpt lat="45.28682" lon="3.97578">
        <ele>652.1</ele>
        <time>2012-04-12T13:38:55Z</time>
      </trkpt>
      <trkpt lat="45.28682" lon="3.97578">
        <ele>632.3</ele>
        <time>2012-04-12T13:39:22Z</time>
      </trkpt>
      <trkpt lat="45.28682" lon="3.97578">
        <ele>632.3</ele>
        <time>2012-04-12T13:39:45Z</time>
      </trkpt>
      <trkpt lat="45.28681" lon="3.97584">
        <ele>666.7</ele>
        <time>2012-04-12T13:39:46Z</time>
      </trkpt>
      <trkpt lat="45.28678" lon="3.97565">
        <ele>678.4</ele>
        <time>2012-04-12T13:40:06Z</time>
      </trkpt>
      <trkpt lat="45.28678" lon="3.97565">
        <ele>630.6</ele>
        <time>2012-04-12T13:40:23Z</time>
      </trkpt>
      <trkpt lat="45.28678" lon="3.97565">
        <ele>630.6</ele>
        <time>2012-04-12T13:40:24Z</time>
      </trkpt>
      <trkpt lat="45.28678" lon="3.97546">
        <ele>636.5</ele>
        <time>2012-04-12T13:40:25Z</time>
      </trkpt>
      <trkpt lat="45.28678" lon="3.97546">
        <ele>630.9</ele>
        <time>2012-04-12T13:40:47Z</time>
      </trkpt>
      <trkpt lat="45.28678" lon="3.97546">
        <ele>630.9</ele>
        <time>2012-04-12T13:40:47Z</time>
      </trkpt>
      <trkpt lat="45.28684" lon="3.97527">
        <ele>654.6</ele>
        <time>2012-04-12T13:40:48Z</time>
      </trkpt>
      <trkpt lat="45.28694" lon="3.97513">
        <ele>653.3</ele>
        <time>2012-04-12T13:41:05Z</time>
      </trkpt>
      <trkpt lat="45.28703" lon="3.97497">
        <ele>667.3</ele>
        <time>2012-04-12T13:41:25Z</time>
      </trkpt>
      <trkpt lat="45.2871" lon="3.9748">
        <ele>658.4</ele>
        <time>2012-04-12T13:41:41Z</time>
      </trkpt>
      <trkpt lat="45.28721" lon="3.97468">
        <ele>643.9</ele>
        <time>2012-04-12T13:41:56Z</time>
      </trkpt>
      <trkpt lat="45.28734" lon="3.9746">
        <ele>642.6</ele>
        <time>2012-04-12T13:42:10Z</time>
      </trkpt>
      <trkpt lat="45.28748" lon="3.97456">
        <ele>648.5</ele>
        <time>2012-04-12T13:42:26Z</time>
      </trkpt>
      <trkpt lat="45.28762" lon="3.97454">
        <ele>652.3</ele>
        <time>2012-04-12T13:42:41Z</time>
      </trkpt>
      <trkpt lat="45.28762" lon="3.97454">
        <ele>631</ele>
        <time>2012-04-12T13:42:59Z</time>
      </trkpt>
      <trkpt lat="45.28762" lon="3.97454">
        <ele>631</ele>
        <time>2012-04-12T13:43:00Z</time>
      </trkpt>
      <trkpt lat="45.28771" lon="3.97462">
        <ele>642.9</ele>
        <time>2012-04-12T13:43:01Z</time>
      </trkpt>
      <trkpt lat="45.28785" lon="3.97465">
        <ele>652.9</ele>
        <time>2012-04-12T13:43:16Z</time>
      </trkpt>
      <trkpt lat="45.28785" lon="3.97465">
        <ele>634.4</ele>
        <time>2012-04-12T13:43:35Z</time>
      </trkpt>
      <trkpt lat="45.28785" lon="3.97465">
        <ele>634.4</ele>
        <time>2012-04-12T13:43:42Z</time>
      </trkpt>
      <trkpt lat="45.28789" lon="3.97474">
        <ele>652.6</ele>
        <time>2012-04-12T13:43:43Z</time>
      </trkpt>
      <trkpt lat="45.28789" lon="3.97474">
        <ele>638.7</ele>
        <time>2012-04-12T13:44:00Z</time>
      </trkpt>
      <trkpt lat="45.28789" lon="3.97474">
        <ele>638.7</ele>
        <time>2012-04-12T13:44:01Z</time>
      </trkpt>
      <trkpt lat="45.2879" lon="3.97479">
        <ele>677.5</ele>
        <time>2012-04-12T13:44:02Z</time>
      </trkpt>
      <trkpt lat="45.2879" lon="3.97479">
        <ele>641.1</ele>
        <time>2012-04-12T13:44:13Z</time>
      </trkpt>
      <trkpt lat="45.2879" lon="3.97479">
        <ele>641.1</ele>
        <time>2012-04-12T13:44:56Z</time>
      </trkpt>
      <trkpt lat="45.28796" lon="3.97476">
        <ele>652.1</ele>
        <time>2012-04-12T13:44:57Z</time>
      </trkpt>
      <trkpt lat="45.2881" lon="3.97472">
        <ele>651.5</ele>
        <time>2012-04-12T13:45:06Z</time>
      </trkpt>
      <trkpt lat="45.28824" lon="3.97468">
        <ele>654.5</ele>
        <time>2012-04-12T13:45:25Z</time>
      </trkpt>
      <trkpt lat="45.28837" lon="3.9746">
        <ele>657.1</ele>
        <time>2012-04-12T13:45:40Z</time>
      </trkpt>
      <trkpt lat="45.28851" lon="3.97458">
        <ele>658.9</ele>
        <time>2012-04-12T13:45:53Z</time>
      </trkpt>
      <trkpt lat="45.28851" lon="3.97458">
        <ele>636.3</ele>
        <time>2012-04-12T13:46:10Z</time>
      </trkpt>
      <trkpt lat="45.28851" lon="3.97458">
        <ele>636.3</ele>
        <time>2012-04-12T13:46:10Z</time>
      </trkpt>
      <trkpt lat="45.28863" lon="3.97457">
        <ele>654.2</ele>
        <time>2012-04-12T13:46:11Z</time>
      </trkpt>
      <trkpt lat="45.28877" lon="3.97453">
        <ele>658.1</ele>
        <time>2012-04-12T13:46:25Z</time>
      </trkpt>
      <trkpt lat="45.2889" lon="3.97448">
        <ele>666</ele>
        <time>2012-04-12T13:46:43Z</time>
      </trkpt>
      <trkpt lat="45.28904" lon="3.97445">
        <ele>662.3</ele>
        <time>2012-04-12T13:46:59Z</time>
      </trkpt>
      <trkpt lat="45.28918" lon="3.97446">
        <ele>662.9</ele>
        <time>2012-04-12T13:47:20Z</time>
      </trkpt>
      <trkpt lat="45.28931" lon="3.97452">
        <ele>662.3</ele>
        <time>2012-04-12T13:47:36Z</time>
      </trkpt>
      <trkpt lat="45.28944" lon="3.97456">
        <ele>671</ele>
        <time>2012-04-12T13:47:53Z</time>
      </trkpt>
      <trkpt lat="45.28958" lon="3.97457">
        <ele>674.9</ele>
        <time>2012-04-12T13:48:17Z</time>
      </trkpt>
      <trkpt lat="45.28958" lon="3.97457">
        <ele>651.4</ele>
        <time>2012-04-12T13:48:44Z</time>
      </trkpt>
      <trkpt lat="45.28958" lon="3.97457">
        <ele>651.4</ele>
        <time>2012-04-12T13:50:05Z</time>
      </trkpt>
      <trkpt lat="45.2896" lon="3.97467">
        <ele>658.5</ele>
        <time>2012-04-12T13:50:06Z</time>
      </trkpt>
      <trkpt lat="45.2896" lon="3.97467">
        <ele>656.4</ele>
        <time>2012-04-12T13:50:17Z</time>
      </trkpt>
      <trkpt lat="45.2896" lon="3.97467">
        <ele>656.4</ele>
        <time>2012-04-12T13:50:20Z</time>
      </trkpt>
      <trkpt lat="45.28967" lon="3.97461">
        <ele>676</ele>
        <time>2012-04-12T13:50:21Z</time>
      </trkpt>
      <trkpt lat="45.28967" lon="3.97461">
        <ele>653.5</ele>
        <time>2012-04-12T13:50:38Z</time>
      </trkpt>
      <trkpt lat="45.28967" lon="3.97461">
        <ele>653.5</ele>
        <time>2012-04-12T13:50:45Z</time>
      </trkpt>
      <trkpt lat="45.28981" lon="3.97458">
        <ele>679.9</ele>
        <time>2012-04-12T13:50:46Z</time>
      </trkpt>
      <trkpt lat="45.28981" lon="3.97458">
        <ele>653.9</ele>
        <time>2012-04-12T13:50:57Z</time>
      </trkpt>
      <trkpt lat="45.28981" lon="3.97458">
        <ele>653.9</ele>
        <time>2012-04-12T13:51:41Z</time>
      </trkpt>
      <trkpt lat="45.28978" lon="3.97466">
        <ele>647.8</ele>
        <time>2012-04-12T13:51:42Z</time>
      </trkpt>
      <trkpt lat="45.28978" lon="3.97466">
        <ele>656.1</ele>
        <time>2012-04-12T13:51:53Z</time>
      </trkpt>
      <trkpt lat="45.28978" lon="3.97466">
        <ele>656.1</ele>
        <time>2012-04-12T13:52:38Z</time>
      </trkpt>
      <trkpt lat="45.28973" lon="3.97477">
        <ele>645.3</ele>
        <time>2012-04-12T13:52:39Z</time>
      </trkpt>
      <trkpt lat="45.28973" lon="3.97477">
        <ele>656.6</ele>
        <time>2012-04-12T13:52:54Z</time>
      </trkpt>
      <trkpt lat="45.28973" lon="3.97477">
        <ele>656.6</ele>
        <time>2012-04-12T13:54:31Z</time>
      </trkpt>
      <trkpt lat="45.28965" lon="3.97475">
        <ele>670.7</ele>
        <time>2012-04-12T13:54:32Z</time>
      </trkpt>
      <trkpt lat="45.28965" lon="3.97475">
        <ele>657.5</ele>
        <time>2012-04-12T13:54:43Z</time>
      </trkpt>
      <trkpt lat="45.28965" lon="3.97475">
        <ele>657.5</ele>
        <time>2012-04-12T13:55:09Z</time>
      </trkpt>
      <trkpt lat="45.28973" lon="3.97487">
        <ele>672.2</ele>
        <time>2012-04-12T13:55:10Z</time>
      </trkpt>
      <trkpt lat="45.28986" lon="3.97499">
        <ele>671.5</ele>
        <time>2012-04-12T13:55:16Z</time>
      </trkpt>
      <trkpt lat="45.28987" lon="3.97519">
        <ele>671.6</ele>
        <time>2012-04-12T13:55:23Z</time>
      </trkpt>
      <trkpt lat="45.28987" lon="3.97519">
        <ele>650.3</ele>
        <time>2012-04-12T13:55:35Z</time>
      </trkpt>
      <trkpt lat="45.28987" lon="3.97519">
        <ele>650.3</ele>
        <time>2012-04-12T13:55:47Z</time>
      </trkpt>
      <trkpt lat="45.2898" lon="3.97522">
        <ele>665.4</ele>
        <time>2012-04-12T13:55:48Z</time>
      </trkpt>
      <trkpt lat="45.28968" lon="3.97533">
        <ele>676.1</ele>
        <time>2012-04-12T13:55:57Z</time>
      </trkpt>
      <trkpt lat="45.2896" lon="3.97549">
        <ele>669.8</ele>
        <time>2012-04-12T13:56:04Z</time>
      </trkpt>
      <trkpt lat="45.28954" lon="3.97569">
        <ele>673</ele>
        <time>2012-04-12T13:56:10Z</time>
      </trkpt>
      <trkpt lat="45.28948" lon="3.97589">
        <ele>668.3</ele>
        <time>2012-04-12T13:56:15Z</time>
      </trkpt>
      <trkpt lat="45.28941" lon="3.9761">
        <ele>668.2</ele>
        <time>2012-04-12T13:56:21Z</time>
      </trkpt>
      <trkpt lat="45.28929" lon="3.97627">
        <ele>665.8</ele>
        <time>2012-04-12T13:56:26Z</time>
      </trkpt>
      <trkpt lat="45.28915" lon="3.97638">
        <ele>666.9</ele>
        <time>2012-04-12T13:56:31Z</time>
      </trkpt>
      <trkpt lat="45.28901" lon="3.9765">
        <ele>666.5</ele>
        <time>2012-04-12T13:56:35Z</time>
      </trkpt>
      <trkpt lat="45.28875" lon="3.97679">
        <ele>664.7</ele>
        <time>2012-04-12T13:56:40Z</time>
      </trkpt>
      <trkpt lat="45.28849" lon="3.97703">
        <ele>663.6</ele>
        <time>2012-04-12T13:56:44Z</time>
      </trkpt>
      <trkpt lat="45.28802" lon="3.97717">
        <ele>662.7</ele>
        <time>2012-04-12T13:56:50Z</time>
      </trkpt>
      <trkpt lat="45.28768" lon="3.97724">
        <ele>658.1</ele>
        <time>2012-04-12T13:56:57Z</time>
      </trkpt>
      <trkpt lat="45.28734" lon="3.97733">
        <ele>653.2</ele>
        <time>2012-04-12T13:57:03Z</time>
      </trkpt>
      <trkpt lat="45.28702" lon="3.97728">
        <ele>649.5</ele>
        <time>2012-04-12T13:57:08Z</time>
      </trkpt>
      <trkpt lat="45.28688" lon="3.97738">
        <ele>642.9</ele>
        <time>2012-04-12T13:57:12Z</time>
      </trkpt>
      <trkpt lat="45.28672" lon="3.97779">
        <ele>640.3</ele>
        <time>2012-04-12T13:57:17Z</time>
      </trkpt>
      <trkpt lat="45.28636" lon="3.97824">
        <ele>637.1</ele>
        <time>2012-04-12T13:57:23Z</time>
      </trkpt>
      <trkpt lat="45.28609" lon="3.97846">
        <ele>634</ele>
        <time>2012-04-12T13:57:31Z</time>
      </trkpt>
      <trkpt lat="45.28594" lon="3.97849">
        <ele>636.1</ele>
        <time>2012-04-12T13:57:36Z</time>
      </trkpt>
      <trkpt lat="45.2858" lon="3.97853">
        <ele>630.5</ele>
        <time>2012-04-12T13:57:43Z</time>
      </trkpt>
      <trkpt lat="45.2858" lon="3.97853">
        <ele>609.1</ele>
        <time>2012-04-12T13:57:53Z</time>
      </trkpt>
      <trkpt lat="45.2858" lon="3.97853">
        <ele>609.1</ele>
        <time>2012-04-12T13:57:55Z</time>
      </trkpt>
      <trkpt lat="45.28578" lon="3.97855">
        <ele>645.2</ele>
        <time>2012-04-12T13:57:56Z</time>
      </trkpt>
      <trkpt lat="45.28571" lon="3.97838">
        <ele>654.1</ele>
        <time>2012-04-12T13:58:12Z</time>
      </trkpt>
      <trkpt lat="45.28571" lon="3.97838">
        <ele>603.8</ele>
        <time>2012-04-12T13:58:22Z</time>
      </trkpt>
      <trkpt lat="45.28571" lon="3.97838">
        <ele>603.8</ele>
        <time>2012-04-12T13:58:30Z</time>
      </trkpt>
      <trkpt lat="45.2856" lon="3.97828">
        <ele>647.2</ele>
        <time>2012-04-12T13:58:31Z</time>
      </trkpt>
      <trkpt lat="45.28543" lon="3.97836">
        <ele>663.8</ele>
        <time>2012-04-12T13:58:43Z</time>
      </trkpt>
      <trkpt lat="45.2853" lon="3.97843">
        <ele>662.3</ele>
        <time>2012-04-12T13:58:50Z</time>
      </trkpt>
      <trkpt lat="45.28515" lon="3.97843">
        <ele>653.9</ele>
        <time>2012-04-12T13:58:58Z</time>
      </trkpt>
      <trkpt lat="45.28501" lon="3.97848">
        <ele>650.5</ele>
        <time>2012-04-12T13:59:07Z</time>
      </trkpt>
      <trkpt lat="45.28489" lon="3.97856">
        <ele>658.7</ele>
        <time>2012-04-12T13:59:16Z</time>
      </trkpt>
      <trkpt lat="45.28489" lon="3.97834">
        <ele>667.3</ele>
        <time>2012-04-12T13:59:40Z</time>
      </trkpt>
      <trkpt lat="45.28498" lon="3.97817">
        <ele>665.4</ele>
        <time>2012-04-12T13:59:51Z</time>
      </trkpt>
      <trkpt lat="45.28507" lon="3.97802">
        <ele>662</ele>
        <time>2012-04-12T14:00:01Z</time>
      </trkpt>
      <trkpt lat="45.28514" lon="3.97785">
        <ele>663.2</ele>
        <time>2012-04-12T14:00:10Z</time>
      </trkpt>
      <trkpt lat="45.28522" lon="3.97769">
        <ele>672.1</ele>
        <time>2012-04-12T14:00:21Z</time>
      </trkpt>
      <trkpt lat="45.28531" lon="3.97751">
        <ele>668.8</ele>
        <time>2012-04-12T14:00:33Z</time>
      </trkpt>
      <trkpt lat="45.2854" lon="3.97734">
        <ele>667.9</ele>
        <time>2012-04-12T14:00:44Z</time>
      </trkpt>
      <trkpt lat="45.28548" lon="3.97717">
        <ele>664.6</ele>
        <time>2012-04-12T14:00:54Z</time>
      </trkpt>
      <trkpt lat="45.28545" lon="3.97698">
        <ele>671.5</ele>
        <time>2012-04-12T14:01:06Z</time>
      </trkpt>
      <trkpt lat="45.28531" lon="3.977">
        <ele>670.8</ele>
        <time>2012-04-12T14:01:22Z</time>
      </trkpt>
      <trkpt lat="45.28517" lon="3.97706">
        <ele>678.1</ele>
        <time>2012-04-12T14:01:37Z</time>
      </trkpt>
      <trkpt lat="45.28505" lon="3.97721">
        <ele>686.7</ele>
        <time>2012-04-12T14:01:47Z</time>
      </trkpt>
      <trkpt lat="45.28494" lon="3.97734">
        <ele>672.7</ele>
        <time>2012-04-12T14:01:58Z</time>
      </trkpt>
      <trkpt lat="45.28482" lon="3.97746">
        <ele>675</ele>
        <time>2012-04-12T14:02:08Z</time>
      </trkpt>
      <trkpt lat="45.28471" lon="3.97759">
        <ele>672.9</ele>
        <time>2012-04-12T14:02:18Z</time>
      </trkpt>
      <trkpt lat="45.28462" lon="3.97773">
        <ele>675.5</ele>
        <time>2012-04-12T14:02:26Z</time>
      </trkpt>
      <trkpt lat="45.28449" lon="3.97784">
        <ele>682.8</ele>
        <time>2012-04-12T14:02:35Z</time>
      </trkpt>
      <trkpt lat="45.28436" lon="3.97792">
        <ele>684.3</ele>
        <time>2012-04-12T14:02:44Z</time>
      </trkpt>
      <trkpt lat="45.28423" lon="3.97799">
        <ele>681.3</ele>
        <time>2012-04-12T14:02:53Z</time>
      </trkpt>
      <trkpt lat="45.28414" lon="3.97815">
        <ele>688.2</ele>
        <time>2012-04-12T14:03:04Z</time>
      </trkpt>
      <trkpt lat="45.28404" lon="3.97828">
        <ele>693.4</ele>
        <time>2012-04-12T14:03:14Z</time>
      </trkpt>
      <trkpt lat="45.28401" lon="3.97848">
        <ele>691.9</ele>
        <time>2012-04-12T14:03:28Z</time>
      </trkpt>
      <trkpt lat="45.28392" lon="3.97866">
        <ele>695</ele>
        <time>2012-04-12T14:03:40Z</time>
      </trkpt>
      <trkpt lat="45.28386" lon="3.97884">
        <ele>692.8</ele>
        <time>2012-04-12T14:03:51Z</time>
      </trkpt>
      <trkpt lat="45.28385" lon="3.97904">
        <ele>697.1</ele>
        <time>2012-04-12T14:04:00Z</time>
      </trkpt>
      <trkpt lat="45.28385" lon="3.97924">
        <ele>695.6</ele>
        <time>2012-04-12T14:04:12Z</time>
      </trkpt>
      <trkpt lat="45.28378" lon="3.97943">
        <ele>693.4</ele>
        <time>2012-04-12T14:04:22Z</time>
      </trkpt>
      <trkpt lat="45.28372" lon="3.97961">
        <ele>698.2</ele>
        <time>2012-04-12T14:04:32Z</time>
      </trkpt>
      <trkpt lat="45.28362" lon="3.97977">
        <ele>708.3</ele>
        <time>2012-04-12T14:04:42Z</time>
      </trkpt>
      <trkpt lat="45.2835" lon="3.97987">
        <ele>707.7</ele>
        <time>2012-04-12T14:04:51Z</time>
      </trkpt>
      <trkpt lat="45.28338" lon="3.97995">
        <ele>705.5</ele>
        <time>2012-04-12T14:05:01Z</time>
      </trkpt>
      <trkpt lat="45.28323" lon="3.97996">
        <ele>704.7</ele>
        <time>2012-04-12T14:05:10Z</time>
      </trkpt>
      <trkpt lat="45.28309" lon="3.97989">
        <ele>707.4</ele>
        <time>2012-04-12T14:05:20Z</time>
      </trkpt>
      <trkpt lat="45.28299" lon="3.97974">
        <ele>709.8</ele>
        <time>2012-04-12T14:05:29Z</time>
      </trkpt>
      <trkpt lat="45.28291" lon="3.97958">
        <ele>712.1</ele>
        <time>2012-04-12T14:05:38Z</time>
      </trkpt>
      <trkpt lat="45.28284" lon="3.97941">
        <ele>711.5</ele>
        <time>2012-04-12T14:05:46Z</time>
      </trkpt>
      <trkpt lat="45.28292" lon="3.97925">
        <ele>713.2</ele>
        <time>2012-04-12T14:05:56Z</time>
      </trkpt>
      <trkpt lat="45.28279" lon="3.97918">
        <ele>716.8</ele>
        <time>2012-04-12T14:06:06Z</time>
      </trkpt>
      <trkpt lat="45.28266" lon="3.9791">
        <ele>719.3</ele>
        <time>2012-04-12T14:06:15Z</time>
      </trkpt>
      <trkpt lat="45.28258" lon="3.97893">
        <ele>719.2</ele>
        <time>2012-04-12T14:06:25Z</time>
      </trkpt>
      <trkpt lat="45.28248" lon="3.97879">
        <ele>723.9</ele>
        <time>2012-04-12T14:06:36Z</time>
      </trkpt>
      <trkpt lat="45.28252" lon="3.9786">
        <ele>724.2</ele>
        <time>2012-04-12T14:06:48Z</time>
      </trkpt>
      <trkpt lat="45.28256" lon="3.97841">
        <ele>725.8</ele>
        <time>2012-04-12T14:07:01Z</time>
      </trkpt>
      <trkpt lat="45.28256" lon="3.97821">
        <ele>728.8</ele>
        <time>2012-04-12T14:07:14Z</time>
      </trkpt>
      <trkpt lat="45.28254" lon="3.97802">
        <ele>737.7</ele>
        <time>2012-04-12T14:07:26Z</time>
      </trkpt>
      <trkpt lat="45.28248" lon="3.97783">
        <ele>738.6</ele>
        <time>2012-04-12T14:07:38Z</time>
      </trkpt>
      <trkpt lat="45.28246" lon="3.97763">
        <ele>740.5</ele>
        <time>2012-04-12T14:07:51Z</time>
      </trkpt>
      <trkpt lat="45.28238" lon="3.97746">
        <ele>740</ele>
        <time>2012-04-12T14:08:05Z</time>
      </trkpt>
      <trkpt lat="45.28231" lon="3.97729">
        <ele>742.9</ele>
        <time>2012-04-12T14:08:18Z</time>
      </trkpt>
      <trkpt lat="45.28225" lon="3.9771">
        <ele>742.8</ele>
        <time>2012-04-12T14:08:32Z</time>
      </trkpt>
      <trkpt lat="45.2822" lon="3.97691">
        <ele>745.3</ele>
        <time>2012-04-12T14:08:45Z</time>
      </trkpt>
      <trkpt lat="45.28209" lon="3.97679">
        <ele>749</ele>
        <time>2012-04-12T14:08:57Z</time>
      </trkpt>
      <trkpt lat="45.28205" lon="3.9766">
        <ele>756.8</ele>
        <time>2012-04-12T14:09:12Z</time>
      </trkpt>
      <trkpt lat="45.28201" lon="3.97641">
        <ele>763.6</ele>
        <time>2012-04-12T14:09:24Z</time>
      </trkpt>
      <trkpt lat="45.28193" lon="3.97625">
        <ele>765.6</ele>
        <time>2012-04-12T14:09:37Z</time>
      </trkpt>
      <trkpt lat="45.28186" lon="3.97607">
        <ele>764</ele>
        <time>2012-04-12T14:09:48Z</time>
      </trkpt>
      <trkpt lat="45.28179" lon="3.97591">
        <ele>766.4</ele>
        <time>2012-04-12T14:10:00Z</time>
      </trkpt>
      <trkpt lat="45.28172" lon="3.97573">
        <ele>766.4</ele>
        <time>2012-04-12T14:10:09Z</time>
      </trkpt>
      <trkpt lat="45.28165" lon="3.97556">
        <ele>765.4</ele>
        <time>2012-04-12T14:10:19Z</time>
      </trkpt>
      <trkpt lat="45.28156" lon="3.97542">
        <ele>766.5</ele>
        <time>2012-04-12T14:10:30Z</time>
      </trkpt>
      <trkpt lat="45.28142" lon="3.97535">
        <ele>768.6</ele>
        <time>2012-04-12T14:10:40Z</time>
      </trkpt>
      <trkpt lat="45.28128" lon="3.9753">
        <ele>770.1</ele>
        <time>2012-04-12T14:10:48Z</time>
      </trkpt>
      <trkpt lat="45.28114" lon="3.97526">
        <ele>771.2</ele>
        <time>2012-04-12T14:10:57Z</time>
      </trkpt>
      <trkpt lat="45.28101" lon="3.97515">
        <ele>776.7</ele>
        <time>2012-04-12T14:11:07Z</time>
      </trkpt>
      <trkpt lat="45.28089" lon="3.97502">
        <ele>778.8</ele>
        <time>2012-04-12T14:11:18Z</time>
      </trkpt>
      <trkpt lat="45.28075" lon="3.97496">
        <ele>778.2</ele>
        <time>2012-04-12T14:11:27Z</time>
      </trkpt>
      <trkpt lat="45.28075" lon="3.97496">
        <ele>763</ele>
        <time>2012-04-12T14:11:40Z</time>
      </trkpt>
      <trkpt lat="45.28075" lon="3.97496">
        <ele>763</ele>
        <time>2012-04-12T14:12:44Z</time>
      </trkpt>
      <trkpt lat="45.28064" lon="3.97491">
        <ele>776.3</ele>
        <time>2012-04-12T14:12:45Z</time>
      </trkpt>
      <trkpt lat="45.2805" lon="3.97483">
        <ele>775.7</ele>
        <time>2012-04-12T14:12:54Z</time>
      </trkpt>
      <trkpt lat="45.28038" lon="3.97472">
        <ele>779.5</ele>
        <time>2012-04-12T14:13:02Z</time>
      </trkpt>
      <trkpt lat="45.28024" lon="3.97461">
        <ele>781.8</ele>
        <time>2012-04-12T14:13:08Z</time>
      </trkpt>
      <trkpt lat="45.28012" lon="3.9745">
        <ele>783</ele>
        <time>2012-04-12T14:13:16Z</time>
      </trkpt>
      <trkpt lat="45.27999" lon="3.97441">
        <ele>777.5</ele>
        <time>2012-04-12T14:13:25Z</time>
      </trkpt>
      <trkpt lat="45.27988" lon="3.97426">
        <ele>787.1</ele>
        <time>2012-04-12T14:13:34Z</time>
      </trkpt>
      <trkpt lat="45.27977" lon="3.97415">
        <ele>784.7</ele>
        <time>2012-04-12T14:13:42Z</time>
      </trkpt>
      <trkpt lat="45.27963" lon="3.97418">
        <ele>794</ele>
        <time>2012-04-12T14:13:53Z</time>
      </trkpt>
      <trkpt lat="45.27949" lon="3.97422">
        <ele>785.1</ele>
        <time>2012-04-12T14:13:59Z</time>
      </trkpt>
      <trkpt lat="45.27935" lon="3.97427">
        <ele>787</ele>
        <time>2012-04-12T14:14:06Z</time>
      </trkpt>
      <trkpt lat="45.27921" lon="3.97432">
        <ele>789.1</ele>
        <time>2012-04-12T14:14:13Z</time>
      </trkpt>
      <trkpt lat="45.27908" lon="3.9744">
        <ele>789.7</ele>
        <time>2012-04-12T14:14:19Z</time>
      </trkpt>
      <trkpt lat="45.27899" lon="3.97454">
        <ele>786.4</ele>
        <time>2012-04-12T14:14:26Z</time>
      </trkpt>
      <trkpt lat="45.2789" lon="3.97469">
        <ele>790.1</ele>
        <time>2012-04-12T14:14:34Z</time>
      </trkpt>
      <trkpt lat="45.2788" lon="3.97482">
        <ele>796.5</ele>
        <time>2012-04-12T14:14:41Z</time>
      </trkpt>
      <trkpt lat="45.27867" lon="3.97494">
        <ele>797.7</ele>
        <time>2012-04-12T14:14:48Z</time>
      </trkpt>
      <trkpt lat="45.27856" lon="3.97505">
        <ele>792.8</ele>
        <time>2012-04-12T14:14:55Z</time>
      </trkpt>
      <trkpt lat="45.27843" lon="3.97513">
        <ele>792.4</ele>
        <time>2012-04-12T14:15:00Z</time>
      </trkpt>
      <trkpt lat="45.27828" lon="3.97517">
        <ele>792.2</ele>
        <time>2012-04-12T14:15:08Z</time>
      </trkpt>
      <trkpt lat="45.27813" lon="3.97515">
        <ele>790.2</ele>
        <time>2012-04-12T14:15:16Z</time>
      </trkpt>
      <trkpt lat="45.27799" lon="3.97509">
        <ele>792.6</ele>
        <time>2012-04-12T14:15:23Z</time>
      </trkpt>
      <trkpt lat="45.27786" lon="3.975">
        <ele>793.2</ele>
        <time>2012-04-12T14:15:30Z</time>
      </trkpt>
      <trkpt lat="45.27773" lon="3.97493">
        <ele>793.2</ele>
        <time>2012-04-12T14:15:37Z</time>
      </trkpt>
      <trkpt lat="45.27758" lon="3.97495">
        <ele>793.6</ele>
        <time>2012-04-12T14:15:44Z</time>
      </trkpt>
      <trkpt lat="45.27744" lon="3.97504">
        <ele>796.5</ele>
        <time>2012-04-12T14:15:51Z</time>
      </trkpt>
      <trkpt lat="45.27731" lon="3.97513">
        <ele>798.8</ele>
        <time>2012-04-12T14:15:58Z</time>
      </trkpt>
      <trkpt lat="45.27716" lon="3.97519">
        <ele>796.5</ele>
        <time>2012-04-12T14:16:05Z</time>
      </trkpt>
      <trkpt lat="45.27702" lon="3.97526">
        <ele>797.8</ele>
        <time>2012-04-12T14:16:12Z</time>
      </trkpt>
      <trkpt lat="45.27688" lon="3.97528">
        <ele>798.7</ele>
        <time>2012-04-12T14:16:19Z</time>
      </trkpt>
      <trkpt lat="45.27674" lon="3.97526">
        <ele>794.7</ele>
        <time>2012-04-12T14:16:24Z</time>
      </trkpt>
      <trkpt lat="45.2766" lon="3.9752">
        <ele>794.5</ele>
        <time>2012-04-12T14:16:32Z</time>
      </trkpt>
      <trkpt lat="45.27646" lon="3.9752">
        <ele>795.7</ele>
        <time>2012-04-12T14:16:38Z</time>
      </trkpt>
      <trkpt lat="45.27632" lon="3.97524">
        <ele>797.5</ele>
        <time>2012-04-12T14:16:44Z</time>
      </trkpt>
      <trkpt lat="45.27617" lon="3.97529">
        <ele>799.1</ele>
        <time>2012-04-12T14:16:50Z</time>
      </trkpt>
      <trkpt lat="45.27601" lon="3.97533">
        <ele>797.9</ele>
        <time>2012-04-12T14:16:56Z</time>
      </trkpt>
      <trkpt lat="45.27587" lon="3.97538">
        <ele>794.4</ele>
        <time>2012-04-12T14:17:01Z</time>
      </trkpt>
      <trkpt lat="45.27572" lon="3.97542">
        <ele>794.6</ele>
        <time>2012-04-12T14:17:07Z</time>
      </trkpt>
      <trkpt lat="45.27557" lon="3.97544">
        <ele>795.4</ele>
        <time>2012-04-12T14:17:13Z</time>
      </trkpt>
      <trkpt lat="45.27543" lon="3.97554">
        <ele>795.1</ele>
        <time>2012-04-12T14:17:20Z</time>
      </trkpt>
      <trkpt lat="45.27533" lon="3.97569">
        <ele>797.5</ele>
        <time>2012-04-12T14:17:26Z</time>
      </trkpt>
      <trkpt lat="45.27521" lon="3.97582">
        <ele>798.8</ele>
        <time>2012-04-12T14:17:32Z</time>
      </trkpt>
      <trkpt lat="45.27509" lon="3.97594">
        <ele>799.4</ele>
        <time>2012-04-12T14:17:39Z</time>
      </trkpt>
      <trkpt lat="45.27495" lon="3.97599">
        <ele>807.2</ele>
        <time>2012-04-12T14:17:48Z</time>
      </trkpt>
      <trkpt lat="45.27481" lon="3.97598">
        <ele>808</ele>
        <time>2012-04-12T14:17:55Z</time>
      </trkpt>
      <trkpt lat="45.27465" lon="3.97598">
        <ele>803.5</ele>
        <time>2012-04-12T14:18:01Z</time>
      </trkpt>
      <trkpt lat="45.27452" lon="3.97602">
        <ele>805.8</ele>
        <time>2012-04-12T14:18:10Z</time>
      </trkpt>
      <trkpt lat="45.2744" lon="3.97615">
        <ele>814.3</ele>
        <time>2012-04-12T14:18:22Z</time>
      </trkpt>
      <trkpt lat="45.27426" lon="3.97619">
        <ele>810.3</ele>
        <time>2012-04-12T14:18:35Z</time>
      </trkpt>
      <trkpt lat="45.27412" lon="3.97613">
        <ele>813.1</ele>
        <time>2012-04-12T14:18:45Z</time>
      </trkpt>
      <trkpt lat="45.27398" lon="3.97618">
        <ele>817.2</ele>
        <time>2012-04-12T14:19:00Z</time>
      </trkpt>
      <trkpt lat="45.27384" lon="3.97617">
        <ele>814.7</ele>
        <time>2012-04-12T14:19:11Z</time>
      </trkpt>
      <trkpt lat="45.27371" lon="3.97612">
        <ele>815.3</ele>
        <time>2012-04-12T14:19:20Z</time>
      </trkpt>
      <trkpt lat="45.27356" lon="3.97611">
        <ele>817.9</ele>
        <time>2012-04-12T14:19:31Z</time>
      </trkpt>
      <trkpt lat="45.27344" lon="3.97601">
        <ele>818.7</ele>
        <time>2012-04-12T14:19:41Z</time>
      </trkpt>
      <trkpt lat="45.27331" lon="3.97592">
        <ele>819.6</ele>
        <time>2012-04-12T14:19:50Z</time>
      </trkpt>
      <trkpt lat="45.27318" lon="3.97596">
        <ele>821.8</ele>
        <time>2012-04-12T14:19:58Z</time>
      </trkpt>
      <trkpt lat="45.27303" lon="3.97601">
        <ele>819.6</ele>
        <time>2012-04-12T14:20:04Z</time>
      </trkpt>
      <trkpt lat="45.27276" lon="3.97584">
        <ele>818.2</ele>
        <time>2012-04-12T14:20:12Z</time>
      </trkpt>
      <trkpt lat="45.27291" lon="3.97541">
        <ele>820.2</ele>
        <time>2012-04-12T14:20:20Z</time>
      </trkpt>
      <trkpt lat="45.27298" lon="3.97522">
        <ele>821.4</ele>
        <time>2012-04-12T14:20:25Z</time>
      </trkpt>
      <trkpt lat="45.27306" lon="3.97506">
        <ele>822.4</ele>
        <time>2012-04-12T14:20:30Z</time>
      </trkpt>
      <trkpt lat="45.27313" lon="3.97487">
        <ele>822.1</ele>
        <time>2012-04-12T14:20:35Z</time>
      </trkpt>
      <trkpt lat="45.27318" lon="3.97467">
        <ele>824.8</ele>
        <time>2012-04-12T14:20:40Z</time>
      </trkpt>
      <trkpt lat="45.27324" lon="3.97447">
        <ele>824.1</ele>
        <time>2012-04-12T14:20:45Z</time>
      </trkpt>
      <trkpt lat="45.27331" lon="3.97429">
        <ele>824.5</ele>
        <time>2012-04-12T14:20:50Z</time>
      </trkpt>
      <trkpt lat="45.2734" lon="3.97414">
        <ele>823</ele>
        <time>2012-04-12T14:20:55Z</time>
      </trkpt>
      <trkpt lat="45.27348" lon="3.97398">
        <ele>822.4</ele>
        <time>2012-04-12T14:21:01Z</time>
      </trkpt>
      <trkpt lat="45.27356" lon="3.97381">
        <ele>824.7</ele>
        <time>2012-04-12T14:21:07Z</time>
      </trkpt>
      <trkpt lat="45.27366" lon="3.97364">
        <ele>826.4</ele>
        <time>2012-04-12T14:21:14Z</time>
      </trkpt>
      <trkpt lat="45.27376" lon="3.9735">
        <ele>827.4</ele>
        <time>2012-04-12T14:21:20Z</time>
      </trkpt>
      <trkpt lat="45.27389" lon="3.9734">
        <ele>825.2</ele>
        <time>2012-04-12T14:21:27Z</time>
      </trkpt>
      <trkpt lat="45.27402" lon="3.97349">
        <ele>827.7</ele>
        <time>2012-04-12T14:21:33Z</time>
      </trkpt>
      <trkpt lat="45.27418" lon="3.9735">
        <ele>826.8</ele>
        <time>2012-04-12T14:21:39Z</time>
      </trkpt>
      <trkpt lat="45.27434" lon="3.97348">
        <ele>827.7</ele>
        <time>2012-04-12T14:21:46Z</time>
      </trkpt>
      <trkpt lat="45.27448" lon="3.97347">
        <ele>827.6</ele>
        <time>2012-04-12T14:21:52Z</time>
      </trkpt>
      <trkpt lat="45.27463" lon="3.97346">
        <ele>828.2</ele>
        <time>2012-04-12T14:21:59Z</time>
      </trkpt>
      <trkpt lat="45.27476" lon="3.97339">
        <ele>828.5</ele>
        <time>2012-04-12T14:22:06Z</time>
      </trkpt>
      <trkpt lat="45.27483" lon="3.97322">
        <ele>829.2</ele>
        <time>2012-04-12T14:22:18Z</time>
      </trkpt>
      <trkpt lat="45.27496" lon="3.97314">
        <ele>831.3</ele>
        <time>2012-04-12T14:22:27Z</time>
      </trkpt>
      <trkpt lat="45.27509" lon="3.97306">
        <ele>834.2</ele>
        <time>2012-04-12T14:22:35Z</time>
      </trkpt>
      <trkpt lat="45.27524" lon="3.97301">
        <ele>835.2</ele>
        <time>2012-04-12T14:22:43Z</time>
      </trkpt>
      <trkpt lat="45.27539" lon="3.97301">
        <ele>835.5</ele>
        <time>2012-04-12T14:22:49Z</time>
      </trkpt>
      <trkpt lat="45.27554" lon="3.97302">
        <ele>834.8</ele>
        <time>2012-04-12T14:22:55Z</time>
      </trkpt>
      <trkpt lat="45.27567" lon="3.973">
        <ele>834.6</ele>
        <time>2012-04-12T14:23:00Z</time>
      </trkpt>
      <trkpt lat="45.27582" lon="3.97298">
        <ele>834.1</ele>
        <time>2012-04-12T14:23:05Z</time>
      </trkpt>
      <trkpt lat="45.27596" lon="3.97291">
        <ele>833.7</ele>
        <time>2012-04-12T14:23:10Z</time>
      </trkpt>
      <trkpt lat="45.27609" lon="3.97286">
        <ele>833.4</ele>
        <time>2012-04-12T14:23:15Z</time>
      </trkpt>
      <trkpt lat="45.27623" lon="3.97282">
        <ele>835.1</ele>
        <time>2012-04-12T14:23:21Z</time>
      </trkpt>
      <trkpt lat="45.27637" lon="3.97277">
        <ele>833.9</ele>
        <time>2012-04-12T14:23:26Z</time>
      </trkpt>
      <trkpt lat="45.27652" lon="3.97272">
        <ele>834.4</ele>
        <time>2012-04-12T14:23:32Z</time>
      </trkpt>
      <trkpt lat="45.27666" lon="3.97267">
        <ele>834.1</ele>
        <time>2012-04-12T14:23:38Z</time>
      </trkpt>
      <trkpt lat="45.2768" lon="3.9726">
        <ele>837.5</ele>
        <time>2012-04-12T14:23:45Z</time>
      </trkpt>
      <trkpt lat="45.27693" lon="3.97256">
        <ele>838.5</ele>
        <time>2012-04-12T14:23:51Z</time>
      </trkpt>
      <trkpt lat="45.27707" lon="3.97255">
        <ele>837.8</ele>
        <time>2012-04-12T14:23:57Z</time>
      </trkpt>
      <trkpt lat="45.27721" lon="3.97255">
        <ele>836.8</ele>
        <time>2012-04-12T14:24:02Z</time>
      </trkpt>
      <trkpt lat="45.27737" lon="3.97252">
        <ele>834.8</ele>
        <time>2012-04-12T14:24:06Z</time>
      </trkpt>
      <trkpt lat="45.27765" lon="3.97243">
        <ele>834</ele>
        <time>2012-04-12T14:24:15Z</time>
      </trkpt>
      <trkpt lat="45.27779" lon="3.97237">
        <ele>834.4</ele>
        <time>2012-04-12T14:24:21Z</time>
      </trkpt>
      <trkpt lat="45.27793" lon="3.97228">
        <ele>832.1</ele>
        <time>2012-04-12T14:24:27Z</time>
      </trkpt>
      <trkpt lat="45.27802" lon="3.97211">
        <ele>833.4</ele>
        <time>2012-04-12T14:24:34Z</time>
      </trkpt>
      <trkpt lat="45.2781" lon="3.97191">
        <ele>833.6</ele>
        <time>2012-04-12T14:24:39Z</time>
      </trkpt>
      <trkpt lat="45.27827" lon="3.9716">
        <ele>832.2</ele>
        <time>2012-04-12T14:24:49Z</time>
      </trkpt>
      <trkpt lat="45.27827" lon="3.9716">
        <ele>827.5</ele>
        <time>2012-04-12T14:25:04Z</time>
      </trkpt>
      <trkpt lat="45.27827" lon="3.9716">
        <ele>827.5</ele>
        <time>2012-04-12T14:25:06Z</time>
      </trkpt>
      <trkpt lat="45.27834" lon="3.9715">
        <ele>838.5</ele>
        <time>2012-04-12T14:25:07Z</time>
      </trkpt>
      <trkpt lat="45.27834" lon="3.9715">
        <ele>829.1</ele>
        <time>2012-04-12T14:25:24Z</time>
      </trkpt>
      <trkpt lat="45.27834" lon="3.9715">
        <ele>829.1</ele>
        <time>2012-04-12T14:25:48Z</time>
      </trkpt>
      <trkpt lat="45.27844" lon="3.97145">
        <ele>839.4</ele>
        <time>2012-04-12T14:25:49Z</time>
      </trkpt>
      <trkpt lat="45.27856" lon="3.97135">
        <ele>839.3</ele>
        <time>2012-04-12T14:26:03Z</time>
      </trkpt>
      <trkpt lat="45.27869" lon="3.97127">
        <ele>840.4</ele>
        <time>2012-04-12T14:26:17Z</time>
      </trkpt>
      <trkpt lat="45.27881" lon="3.97115">
        <ele>845</ele>
        <time>2012-04-12T14:26:32Z</time>
      </trkpt>
      <trkpt lat="45.2789" lon="3.97101">
        <ele>849.1</ele>
        <time>2012-04-12T14:26:48Z</time>
      </trkpt>
      <trkpt lat="45.279" lon="3.97086">
        <ele>851.4</ele>
        <time>2012-04-12T14:27:04Z</time>
      </trkpt>
      <trkpt lat="45.27911" lon="3.97072">
        <ele>849.3</ele>
        <time>2012-04-12T14:27:25Z</time>
      </trkpt>
      <trkpt lat="45.27921" lon="3.97057">
        <ele>849.6</ele>
        <time>2012-04-12T14:27:34Z</time>
      </trkpt>
      <trkpt lat="45.27933" lon="3.97043">
        <ele>848.7</ele>
        <time>2012-04-12T14:27:42Z</time>
      </trkpt>
      <trkpt lat="45.27946" lon="3.97031">
        <ele>848.5</ele>
        <time>2012-04-12T14:27:49Z</time>
      </trkpt>
      <trkpt lat="45.27958" lon="3.97018">
        <ele>847.7</ele>
        <time>2012-04-12T14:27:56Z</time>
      </trkpt>
      <trkpt lat="45.27968" lon="3.97005">
        <ele>851.7</ele>
        <time>2012-04-12T14:28:02Z</time>
      </trkpt>
      <trkpt lat="45.27978" lon="3.96991">
        <ele>852.3</ele>
        <time>2012-04-12T14:28:09Z</time>
      </trkpt>
      <trkpt lat="45.27989" lon="3.96974">
        <ele>851.6</ele>
        <time>2012-04-12T14:28:15Z</time>
      </trkpt>
      <trkpt lat="45.28009" lon="3.96942">
        <ele>847.1</ele>
        <time>2012-04-12T14:28:23Z</time>
      </trkpt>
      <trkpt lat="45.28031" lon="3.96932">
        <ele>848.2</ele>
        <time>2012-04-12T14:28:34Z</time>
      </trkpt>
      <trkpt lat="45.28063" lon="3.96951">
        <ele>843.8</ele>
        <time>2012-04-12T14:28:40Z</time>
      </trkpt>
      <trkpt lat="45.28087" lon="3.96986">
        <ele>840.1</ele>
        <time>2012-04-12T14:28:45Z</time>
      </trkpt>
      <trkpt lat="45.28094" lon="3.97033">
        <ele>837.5</ele>
        <time>2012-04-12T14:28:51Z</time>
      </trkpt>
      <trkpt lat="45.28097" lon="3.97082">
        <ele>832.6</ele>
        <time>2012-04-12T14:28:56Z</time>
      </trkpt>
      <trkpt lat="45.28098" lon="3.97121">
        <ele>833.9</ele>
        <time>2012-04-12T14:29:01Z</time>
      </trkpt>
      <trkpt lat="45.28111" lon="3.97135">
        <ele>834.3</ele>
        <time>2012-04-12T14:29:07Z</time>
      </trkpt>
      <trkpt lat="45.28139" lon="3.97123">
        <ele>832.8</ele>
        <time>2012-04-12T14:29:14Z</time>
      </trkpt>
      <trkpt lat="45.28164" lon="3.97091">
        <ele>827.3</ele>
        <time>2012-04-12T14:29:19Z</time>
      </trkpt>
      <trkpt lat="45.28198" lon="3.97057">
        <ele>825.4</ele>
        <time>2012-04-12T14:29:24Z</time>
      </trkpt>
      <trkpt lat="45.28228" lon="3.97046">
        <ele>821</ele>
        <time>2012-04-12T14:29:28Z</time>
      </trkpt>
      <trkpt lat="45.28271" lon="3.97021">
        <ele>811.4</ele>
        <time>2012-04-12T14:29:34Z</time>
      </trkpt>
      <trkpt lat="45.28283" lon="3.97">
        <ele>803.1</ele>
        <time>2012-04-12T14:29:45Z</time>
      </trkpt>
      <trkpt lat="45.28246" lon="3.96989">
        <ele>799.8</ele>
        <time>2012-04-12T14:29:51Z</time>
      </trkpt>
      <trkpt lat="45.28227" lon="3.96958">
        <ele>795.3</ele>
        <time>2012-04-12T14:29:56Z</time>
      </trkpt>
      <trkpt lat="45.28223" lon="3.96911">
        <ele>802.4</ele>
        <time>2012-04-12T14:30:02Z</time>
      </trkpt>
      <trkpt lat="45.28229" lon="3.96892">
        <ele>804.5</ele>
        <time>2012-04-12T14:30:10Z</time>
      </trkpt>
      <trkpt lat="45.2823" lon="3.96872">
        <ele>805.2</ele>
        <time>2012-04-12T14:30:19Z</time>
      </trkpt>
      <trkpt lat="45.28229" lon="3.96851">
        <ele>802.3</ele>
        <time>2012-04-12T14:30:23Z</time>
      </trkpt>
      <trkpt lat="45.28224" lon="3.96832">
        <ele>802.3</ele>
        <time>2012-04-12T14:30:28Z</time>
      </trkpt>
      <trkpt lat="45.28205" lon="3.96797">
        <ele>802.3</ele>
        <time>2012-04-12T14:30:35Z</time>
      </trkpt>
      <trkpt lat="45.28187" lon="3.96757">
        <ele>797.4</ele>
        <time>2012-04-12T14:30:41Z</time>
      </trkpt>
      <trkpt lat="45.28168" lon="3.96717">
        <ele>799.7</ele>
        <time>2012-04-12T14:30:47Z</time>
      </trkpt>
      <trkpt lat="45.28157" lon="3.96678">
        <ele>801.2</ele>
        <time>2012-04-12T14:30:55Z</time>
      </trkpt>
      <trkpt lat="45.28157" lon="3.96678">
        <ele>772.7</ele>
        <time>2012-04-12T14:31:07Z</time>
      </trkpt>
      <trkpt lat="45.28157" lon="3.96678">
        <ele>772.7</ele>
        <time>2012-04-12T14:31:25Z</time>
      </trkpt>
      <trkpt lat="45.28152" lon="3.96669">
        <ele>813.5</ele>
        <time>2012-04-12T14:31:26Z</time>
      </trkpt>
      <trkpt lat="45.28152" lon="3.96669">
        <ele>773.9</ele>
        <time>2012-04-12T14:31:37Z</time>
      </trkpt>
      <trkpt lat="45.28152" lon="3.96669">
        <ele>773.9</ele>
        <time>2012-04-12T14:31:45Z</time>
      </trkpt>
      <trkpt lat="45.28147" lon="3.96659">
        <ele>808.4</ele>
        <time>2012-04-12T14:31:46Z</time>
      </trkpt>
      <trkpt lat="45.28147" lon="3.96659">
        <ele>775.3</ele>
        <time>2012-04-12T14:31:57Z</time>
      </trkpt>
      <trkpt lat="45.28147" lon="3.96659">
        <ele>775.3</ele>
        <time>2012-04-12T14:31:57Z</time>
      </trkpt>
      <trkpt lat="45.28144" lon="3.96646">
        <ele>805.2</ele>
        <time>2012-04-12T14:31:58Z</time>
      </trkpt>
      <trkpt lat="45.28144" lon="3.96646">
        <ele>776.3</ele>
        <time>2012-04-12T14:32:09Z</time>
      </trkpt>
      <trkpt lat="45.28144" lon="3.96646">
        <ele>776.3</ele>
        <time>2012-04-12T14:32:10Z</time>
      </trkpt>
      <trkpt lat="45.2815" lon="3.96641">
        <ele>805</ele>
        <time>2012-04-12T14:32:11Z</time>
      </trkpt>
      <trkpt lat="45.28163" lon="3.96648">
        <ele>806.6</ele>
        <time>2012-04-12T14:32:21Z</time>
      </trkpt>
      <trkpt lat="45.28163" lon="3.96648">
        <ele>778</ele>
        <time>2012-04-12T14:32:32Z</time>
      </trkpt>
      <trkpt lat="45.28163" lon="3.96648">
        <ele>778</ele>
        <time>2012-04-12T14:32:34Z</time>
      </trkpt>
      <trkpt lat="45.28172" lon="3.9665">
        <ele>808.8</ele>
        <time>2012-04-12T14:32:35Z</time>
      </trkpt>
      <trkpt lat="45.28172" lon="3.9665">
        <ele>778.9</ele>
        <time>2012-04-12T14:32:46Z</time>
      </trkpt>
      <trkpt lat="45.28172" lon="3.9665">
        <ele>778.9</ele>
        <time>2012-04-12T14:32:55Z</time>
      </trkpt>
      <trkpt lat="45.28181" lon="3.96648">
        <ele>813.5</ele>
        <time>2012-04-12T14:32:56Z</time>
      </trkpt>
      <trkpt lat="45.28181" lon="3.96648">
        <ele>781.1</ele>
        <time>2012-04-12T14:33:07Z</time>
      </trkpt>
      <trkpt lat="45.28181" lon="3.96648">
        <ele>781.1</ele>
        <time>2012-04-12T14:33:27Z</time>
      </trkpt>
      <trkpt lat="45.28188" lon="3.96639">
        <ele>803.6</ele>
        <time>2012-04-12T14:33:28Z</time>
      </trkpt>
      <trkpt lat="45.28188" lon="3.96639">
        <ele>784.8</ele>
        <time>2012-04-12T14:33:39Z</time>
      </trkpt>
      <trkpt lat="45.28188" lon="3.96639">
        <ele>784.8</ele>
        <time>2012-04-12T14:33:46Z</time>
      </trkpt>
      <trkpt lat="45.2819" lon="3.96626">
        <ele>807.7</ele>
        <time>2012-04-12T14:33:47Z</time>
      </trkpt>
      <trkpt lat="45.28201" lon="3.96611">
        <ele>811.7</ele>
        <time>2012-04-12T14:34:00Z</time>
      </trkpt>
      <trkpt lat="45.28201" lon="3.96611">
        <ele>793.2</ele>
        <time>2012-04-12T14:34:12Z</time>
      </trkpt>
      <trkpt lat="45.28201" lon="3.96611">
        <ele>793.2</ele>
        <time>2012-04-12T14:34:13Z</time>
      </trkpt>
      <trkpt lat="45.28209" lon="3.96606">
        <ele>820.4</ele>
        <time>2012-04-12T14:34:14Z</time>
      </trkpt>
      <trkpt lat="45.28223" lon="3.96596">
        <ele>816.4</ele>
        <time>2012-04-12T14:34:27Z</time>
      </trkpt>
      <trkpt lat="45.28238" lon="3.96588">
        <ele>823</ele>
        <time>2012-04-12T14:34:42Z</time>
      </trkpt>
      <trkpt lat="45.28238" lon="3.96588">
        <ele>801.7</ele>
        <time>2012-04-12T14:34:54Z</time>
      </trkpt>
      <trkpt lat="45.28238" lon="3.96588">
        <ele>801.7</ele>
        <time>2012-04-12T14:34:54Z</time>
      </trkpt>
      <trkpt lat="45.28246" lon="3.96594">
        <ele>823.1</ele>
        <time>2012-04-12T14:34:55Z</time>
      </trkpt>
      <trkpt lat="45.28246" lon="3.96594">
        <ele>802</ele>
        <time>2012-04-12T14:35:06Z</time>
      </trkpt>
      <trkpt lat="45.28246" lon="3.96594">
        <ele>802</ele>
        <time>2012-04-12T14:37:47Z</time>
      </trkpt>
      <trkpt lat="45.28256" lon="3.96592">
        <ele>818.9</ele>
        <time>2012-04-12T14:37:48Z</time>
      </trkpt>
      <trkpt lat="45.28256" lon="3.96592">
        <ele>803.9</ele>
        <time>2012-04-12T14:37:59Z</time>
      </trkpt>
      <trkpt lat="45.28256" lon="3.96592">
        <ele>803.9</ele>
        <time>2012-04-12T14:38:03Z</time>
      </trkpt>
      <trkpt lat="45.28261" lon="3.96586">
        <ele>806.6</ele>
        <time>2012-04-12T14:38:04Z</time>
      </trkpt>
      <trkpt lat="45.28261" lon="3.96586">
        <ele>806.3</ele>
        <time>2012-04-12T14:38:15Z</time>
      </trkpt>
      <trkpt lat="45.28261" lon="3.96586">
        <ele>806.3</ele>
        <time>2012-04-12T14:40:36Z</time>
      </trkpt>
      <trkpt lat="45.28252" lon="3.96588">
        <ele>801</ele>
        <time>2012-04-12T14:40:37Z</time>
      </trkpt>
      <trkpt lat="45.28252" lon="3.96588">
        <ele>804.3</ele>
        <time>2012-04-12T14:40:48Z</time>
      </trkpt>
      <trkpt lat="45.28252" lon="3.96588">
        <ele>804.3</ele>
        <time>2012-04-12T14:41:43Z</time>
      </trkpt>
      <trkpt lat="45.28249" lon="3.96594">
        <ele>822.3</ele>
        <time>2012-04-12T14:41:44Z</time>
      </trkpt>
      <trkpt lat="45.28249" lon="3.96594">
        <ele>802.6</ele>
        <time>2012-04-12T14:41:56Z</time>
      </trkpt>
      <trkpt lat="45.28249" lon="3.96594">
        <ele>802.6</ele>
        <time>2012-04-12T14:43:00Z</time>
      </trkpt>
      <trkpt lat="45.28246" lon="3.96601">
        <ele>817.5</ele>
        <time>2012-04-12T14:43:01Z</time>
      </trkpt>
      <trkpt lat="45.28246" lon="3.96601">
        <ele>800.4</ele>
        <time>2012-04-12T14:43:13Z</time>
      </trkpt>
      <trkpt lat="45.28246" lon="3.96601">
        <ele>800.4</ele>
        <time>2012-04-12T14:43:13Z</time>
      </trkpt>
      <trkpt lat="45.2825" lon="3.96605">
        <ele>794.8</ele>
        <time>2012-04-12T14:43:14Z</time>
      </trkpt>
      <trkpt lat="45.2825" lon="3.96605">
        <ele>800.3</ele>
        <time>2012-04-12T14:43:26Z</time>
      </trkpt>
      <trkpt lat="45.2825" lon="3.96605">
        <ele>800.3</ele>
        <time>2012-04-12T14:45:19Z</time>
      </trkpt>
      <trkpt lat="45.28252" lon="3.96597">
        <ele>821.9</ele>
        <time>2012-04-12T14:45:20Z</time>
      </trkpt>
      <trkpt lat="45.28252" lon="3.96597">
        <ele>802.3</ele>
        <time>2012-04-12T14:45:32Z</time>
      </trkpt>
      <trkpt lat="45.28252" lon="3.96597">
        <ele>802.3</ele>
        <time>2012-04-12T14:51:26Z</time>
      </trkpt>
      <trkpt lat="45.2824" lon="3.96591">
        <ele>824.2</ele>
        <time>2012-04-12T14:51:27Z</time>
      </trkpt>
      <trkpt lat="45.2824" lon="3.96591">
        <ele>801.5</ele>
        <time>2012-04-12T14:51:46Z</time>
      </trkpt>
      <trkpt lat="45.2824" lon="3.96591">
        <ele>801.5</ele>
        <time>2012-04-12T14:52:13Z</time>
      </trkpt>
      <trkpt lat="45.28239" lon="3.9659">
        <ele>824.7</ele>
        <time>2012-04-12T14:52:14Z</time>
      </trkpt>
      <trkpt lat="45.28239" lon="3.9659">
        <ele>801.7</ele>
        <time>2012-04-12T14:52:26Z</time>
      </trkpt>
      <trkpt lat="45.28239" lon="3.9659">
        <ele>801.7</ele>
        <time>2012-04-12T14:53:22Z</time>
      </trkpt>
      <trkpt lat="45.28244" lon="3.96594">
        <ele>826.3</ele>
        <time>2012-04-12T14:53:23Z</time>
      </trkpt>
      <trkpt lat="45.28244" lon="3.96594">
        <ele>801.7</ele>
        <time>2012-04-12T14:53:35Z</time>
      </trkpt>
      <trkpt lat="45.28244" lon="3.96594">
        <ele>801.7</ele>
        <time>2012-04-12T14:54:23Z</time>
      </trkpt>
      <trkpt lat="45.2825" lon="3.96594">
        <ele>811.6</ele>
        <time>2012-04-12T14:54:24Z</time>
      </trkpt>
      <trkpt lat="45.28264" lon="3.96601">
        <ele>820.5</ele>
        <time>2012-04-12T14:54:43Z</time>
      </trkpt>
      <trkpt lat="45.28278" lon="3.96599">
        <ele>825.6</ele>
        <time>2012-04-12T14:54:52Z</time>
      </trkpt>
      <trkpt lat="45.28293" lon="3.96589">
        <ele>819.2</ele>
        <time>2012-04-12T14:54:59Z</time>
      </trkpt>
      <trkpt lat="45.28306" lon="3.96582">
        <ele>823.8</ele>
        <time>2012-04-12T14:55:10Z</time>
      </trkpt>
      <trkpt lat="45.28323" lon="3.96581">
        <ele>821.7</ele>
        <time>2012-04-12T14:55:27Z</time>
      </trkpt>
      <trkpt lat="45.28323" lon="3.96581">
        <ele>812.7</ele>
        <time>2012-04-12T14:55:38Z</time>
      </trkpt>
      <trkpt lat="45.28323" lon="3.96581">
        <ele>812.7</ele>
        <time>2012-04-12T14:55:48Z</time>
      </trkpt>
      <trkpt lat="45.28318" lon="3.96574">
        <ele>823</ele>
        <time>2012-04-12T14:55:49Z</time>
      </trkpt>
      <trkpt lat="45.28309" lon="3.96559">
        <ele>825.2</ele>
        <time>2012-04-12T14:56:04Z</time>
      </trkpt>
      <trkpt lat="45.28296" lon="3.9655">
        <ele>833</ele>
        <time>2012-04-12T14:56:18Z</time>
      </trkpt>
      <trkpt lat="45.28308" lon="3.96562">
        <ele>828.1</ele>
        <time>2012-04-12T14:56:27Z</time>
      </trkpt>
      <trkpt lat="45.28332" lon="3.96585">
        <ele>821</ele>
        <time>2012-04-12T14:56:35Z</time>
      </trkpt>
      <trkpt lat="45.28346" lon="3.96582">
        <ele>822.3</ele>
        <time>2012-04-12T14:56:47Z</time>
      </trkpt>
      <trkpt lat="45.28346" lon="3.96582">
        <ele>814.6</ele>
        <time>2012-04-12T14:57:02Z</time>
      </trkpt>
      <trkpt lat="45.28346" lon="3.96582">
        <ele>814.6</ele>
        <time>2012-04-12T14:57:27Z</time>
      </trkpt>
      <trkpt lat="45.28342" lon="3.96587">
        <ele>820.6</ele>
        <time>2012-04-12T14:57:28Z</time>
      </trkpt>
      <trkpt lat="45.28328" lon="3.96582">
        <ele>821.6</ele>
        <time>2012-04-12T14:57:32Z</time>
      </trkpt>
      <trkpt lat="45.28316" lon="3.96573">
        <ele>822.8</ele>
        <time>2012-04-12T14:57:38Z</time>
      </trkpt>
      <trkpt lat="45.28307" lon="3.96558">
        <ele>828</ele>
        <time>2012-04-12T14:57:51Z</time>
      </trkpt>
      <trkpt lat="45.28293" lon="3.96551">
        <ele>834.4</ele>
        <time>2012-04-12T14:58:04Z</time>
      </trkpt>
      <trkpt lat="45.2828" lon="3.96541">
        <ele>835</ele>
        <time>2012-04-12T14:58:15Z</time>
      </trkpt>
      <trkpt lat="45.28268" lon="3.96533">
        <ele>834.6</ele>
        <time>2012-04-12T14:58:26Z</time>
      </trkpt>
      <trkpt lat="45.28254" lon="3.96528">
        <ele>840.4</ele>
        <time>2012-04-12T14:58:36Z</time>
      </trkpt>
      <trkpt lat="45.28241" lon="3.96522">
        <ele>836.1</ele>
        <time>2012-04-12T14:58:49Z</time>
      </trkpt>
      <trkpt lat="45.28241" lon="3.96522">
        <ele>820.2</ele>
        <time>2012-04-12T14:59:15Z</time>
      </trkpt>
      <trkpt lat="45.28241" lon="3.96522">
        <ele>820.2</ele>
        <time>2012-04-12T14:59:28Z</time>
      </trkpt>
      <trkpt lat="45.28238" lon="3.96519">
        <ele>833.6</ele>
        <time>2012-04-12T14:59:29Z</time>
      </trkpt>
      <trkpt lat="45.28252" lon="3.96519">
        <ele>834.3</ele>
        <time>2012-04-12T14:59:38Z</time>
      </trkpt>
      <trkpt lat="45.28267" lon="3.96518">
        <ele>834.4</ele>
        <time>2012-04-12T14:59:49Z</time>
      </trkpt>
      <trkpt lat="45.28281" lon="3.96516">
        <ele>838.3</ele>
        <time>2012-04-12T15:00:01Z</time>
      </trkpt>
      <trkpt lat="45.28295" lon="3.96511">
        <ele>841.3</ele>
        <time>2012-04-12T15:00:11Z</time>
      </trkpt>
      <trkpt lat="45.28307" lon="3.96501">
        <ele>842.1</ele>
        <time>2012-04-12T15:00:23Z</time>
      </trkpt>
      <trkpt lat="45.28322" lon="3.96497">
        <ele>832.5</ele>
        <time>2012-04-12T15:00:34Z</time>
      </trkpt>
      <trkpt lat="45.28331" lon="3.96482">
        <ele>838.7</ele>
        <time>2012-04-12T15:00:46Z</time>
      </trkpt>
      <trkpt lat="45.28329" lon="3.96462">
        <ele>842.1</ele>
        <time>2012-04-12T15:00:54Z</time>
      </trkpt>
      <trkpt lat="45.28327" lon="3.96443">
        <ele>841.4</ele>
        <time>2012-04-12T15:01:03Z</time>
      </trkpt>
      <trkpt lat="45.28325" lon="3.96424">
        <ele>843.4</ele>
        <time>2012-04-12T15:01:12Z</time>
      </trkpt>
      <trkpt lat="45.28323" lon="3.96405">
        <ele>844.2</ele>
        <time>2012-04-12T15:01:22Z</time>
      </trkpt>
      <trkpt lat="45.28326" lon="3.96383">
        <ele>847.4</ele>
        <time>2012-04-12T15:01:32Z</time>
      </trkpt>
      <trkpt lat="45.28327" lon="3.96362">
        <ele>846.9</ele>
        <time>2012-04-12T15:01:42Z</time>
      </trkpt>
      <trkpt lat="45.28329" lon="3.9634">
        <ele>848.2</ele>
        <time>2012-04-12T15:01:52Z</time>
      </trkpt>
      <trkpt lat="45.28331" lon="3.9632">
        <ele>849.4</ele>
        <time>2012-04-12T15:02:01Z</time>
      </trkpt>
      <trkpt lat="45.28335" lon="3.96298">
        <ele>852.2</ele>
        <time>2012-04-12T15:02:10Z</time>
      </trkpt>
      <trkpt lat="45.28352" lon="3.96268">
        <ele>849.9</ele>
        <time>2012-04-12T15:02:19Z</time>
      </trkpt>
      <trkpt lat="45.28366" lon="3.96263">
        <ele>850</ele>
        <time>2012-04-12T15:02:26Z</time>
      </trkpt>
      <trkpt lat="45.28379" lon="3.96257">
        <ele>851.6</ele>
        <time>2012-04-12T15:02:32Z</time>
      </trkpt>
      <trkpt lat="45.28393" lon="3.9625">
        <ele>851.7</ele>
        <time>2012-04-12T15:02:39Z</time>
      </trkpt>
      <trkpt lat="45.28406" lon="3.96245">
        <ele>853.8</ele>
        <time>2012-04-12T15:02:46Z</time>
      </trkpt>
      <trkpt lat="45.28421" lon="3.96246">
        <ele>850.7</ele>
        <time>2012-04-12T15:02:52Z</time>
      </trkpt>
      <trkpt lat="45.28436" lon="3.9624">
        <ele>854.1</ele>
        <time>2012-04-12T15:02:59Z</time>
      </trkpt>
      <trkpt lat="45.28449" lon="3.96236">
        <ele>855.6</ele>
        <time>2012-04-12T15:03:05Z</time>
      </trkpt>
      <trkpt lat="45.28465" lon="3.96231">
        <ele>856.3</ele>
        <time>2012-04-12T15:03:11Z</time>
      </trkpt>
      <trkpt lat="45.28478" lon="3.96225">
        <ele>857.2</ele>
        <time>2012-04-12T15:03:16Z</time>
      </trkpt>
      <trkpt lat="45.28493" lon="3.9622">
        <ele>856.2</ele>
        <time>2012-04-12T15:03:22Z</time>
      </trkpt>
      <trkpt lat="45.28507" lon="3.96219">
        <ele>855.6</ele>
        <time>2012-04-12T15:03:27Z</time>
      </trkpt>
      <trkpt lat="45.2852" lon="3.96223">
        <ele>855.7</ele>
        <time>2012-04-12T15:03:32Z</time>
      </trkpt>
      <trkpt lat="45.28534" lon="3.96229">
        <ele>855.7</ele>
        <time>2012-04-12T15:03:38Z</time>
      </trkpt>
      <trkpt lat="45.28548" lon="3.96236">
        <ele>856.9</ele>
        <time>2012-04-12T15:03:43Z</time>
      </trkpt>
      <trkpt lat="45.28562" lon="3.96243">
        <ele>857.8</ele>
        <time>2012-04-12T15:03:48Z</time>
      </trkpt>
      <trkpt lat="45.28578" lon="3.96241">
        <ele>857.8</ele>
        <time>2012-04-12T15:03:54Z</time>
      </trkpt>
      <trkpt lat="45.28591" lon="3.9623">
        <ele>859.2</ele>
        <time>2012-04-12T15:04:00Z</time>
      </trkpt>
      <trkpt lat="45.28605" lon="3.9622">
        <ele>861.7</ele>
        <time>2012-04-12T15:04:06Z</time>
      </trkpt>
      <trkpt lat="45.28617" lon="3.96207">
        <ele>865.8</ele>
        <time>2012-04-12T15:04:12Z</time>
      </trkpt>
      <trkpt lat="45.28619" lon="3.96185">
        <ele>864.6</ele>
        <time>2012-04-12T15:04:18Z</time>
      </trkpt>
      <trkpt lat="45.28623" lon="3.96165">
        <ele>863.2</ele>
        <time>2012-04-12T15:04:24Z</time>
      </trkpt>
      <trkpt lat="45.28632" lon="3.96148">
        <ele>863.7</ele>
        <time>2012-04-12T15:04:30Z</time>
      </trkpt>
      <trkpt lat="45.28642" lon="3.96131">
        <ele>864.5</ele>
        <time>2012-04-12T15:04:36Z</time>
      </trkpt>
      <trkpt lat="45.28649" lon="3.96111">
        <ele>866.9</ele>
        <time>2012-04-12T15:04:42Z</time>
      </trkpt>
      <trkpt lat="45.28647" lon="3.96089">
        <ele>865.3</ele>
        <time>2012-04-12T15:04:48Z</time>
      </trkpt>
      <trkpt lat="45.28647" lon="3.9607">
        <ele>865.5</ele>
        <time>2012-04-12T15:04:54Z</time>
      </trkpt>
      <trkpt lat="45.28654" lon="3.96051">
        <ele>868</ele>
        <time>2012-04-12T15:05:00Z</time>
      </trkpt>
      <trkpt lat="45.28662" lon="3.96031">
        <ele>870.6</ele>
        <time>2012-04-12T15:05:06Z</time>
      </trkpt>
      <trkpt lat="45.28667" lon="3.96013">
        <ele>872</ele>
        <time>2012-04-12T15:05:12Z</time>
      </trkpt>
      <trkpt lat="45.28664" lon="3.95992">
        <ele>870.8</ele>
        <time>2012-04-12T15:05:18Z</time>
      </trkpt>
      <trkpt lat="45.28659" lon="3.95972">
        <ele>870.4</ele>
        <time>2012-04-12T15:05:24Z</time>
      </trkpt>
      <trkpt lat="45.28654" lon="3.95952">
        <ele>873.4</ele>
        <time>2012-04-12T15:05:30Z</time>
      </trkpt>
      <trkpt lat="45.28651" lon="3.95931">
        <ele>874.2</ele>
        <time>2012-04-12T15:05:36Z</time>
      </trkpt>
      <trkpt lat="45.28649" lon="3.95909">
        <ele>874.1</ele>
        <time>2012-04-12T15:05:42Z</time>
      </trkpt>
      <trkpt lat="45.28647" lon="3.95889">
        <ele>877.1</ele>
        <time>2012-04-12T15:05:48Z</time>
      </trkpt>
      <trkpt lat="45.28641" lon="3.95869">
        <ele>877.5</ele>
        <time>2012-04-12T15:05:53Z</time>
      </trkpt>
      <trkpt lat="45.28631" lon="3.95827">
        <ele>877.3</ele>
        <time>2012-04-12T15:05:59Z</time>
      </trkpt>
      <trkpt lat="45.28632" lon="3.95784">
        <ele>875.8</ele>
        <time>2012-04-12T15:06:05Z</time>
      </trkpt>
      <trkpt lat="45.2864" lon="3.95745">
        <ele>874</ele>
        <time>2012-04-12T15:06:11Z</time>
      </trkpt>
      <trkpt lat="45.28645" lon="3.95721">
        <ele>874.4</ele>
        <time>2012-04-12T15:06:15Z</time>
      </trkpt>
      <trkpt lat="45.28653" lon="3.95682">
        <ele>872.9</ele>
        <time>2012-04-12T15:06:24Z</time>
      </trkpt>
      <trkpt lat="45.28655" lon="3.95662">
        <ele>873.5</ele>
        <time>2012-04-12T15:06:28Z</time>
      </trkpt>
      <trkpt lat="45.28654" lon="3.95621">
        <ele>876.2</ele>
        <time>2012-04-12T15:06:36Z</time>
      </trkpt>
      <trkpt lat="45.28652" lon="3.95602">
        <ele>874.6</ele>
        <time>2012-04-12T15:06:40Z</time>
      </trkpt>
      <trkpt lat="45.28655" lon="3.95562">
        <ele>877.1</ele>
        <time>2012-04-12T15:06:49Z</time>
      </trkpt>
      <trkpt lat="45.28665" lon="3.95547">
        <ele>876.1</ele>
        <time>2012-04-12T15:06:54Z</time>
      </trkpt>
      <trkpt lat="45.28676" lon="3.95534">
        <ele>873.7</ele>
        <time>2012-04-12T15:06:59Z</time>
      </trkpt>
      <trkpt lat="45.28689" lon="3.95521">
        <ele>872.1</ele>
        <time>2012-04-12T15:07:04Z</time>
      </trkpt>
      <trkpt lat="45.287" lon="3.95508">
        <ele>875</ele>
        <time>2012-04-12T15:07:09Z</time>
      </trkpt>
      <trkpt lat="45.28714" lon="3.95496">
        <ele>877</ele>
        <time>2012-04-12T15:07:14Z</time>
      </trkpt>
      <trkpt lat="45.28726" lon="3.95484">
        <ele>875.3</ele>
        <time>2012-04-12T15:07:19Z</time>
      </trkpt>
      <trkpt lat="45.2874" lon="3.95471">
        <ele>876.7</ele>
        <time>2012-04-12T15:07:24Z</time>
      </trkpt>
      <trkpt lat="45.28752" lon="3.95459">
        <ele>875.9</ele>
        <time>2012-04-12T15:07:28Z</time>
      </trkpt>
      <trkpt lat="45.28775" lon="3.95431">
        <ele>873.9</ele>
        <time>2012-04-12T15:07:35Z</time>
      </trkpt>
      <trkpt lat="45.28801" lon="3.95405">
        <ele>869.3</ele>
        <time>2012-04-12T15:07:40Z</time>
      </trkpt>
      <trkpt lat="45.28829" lon="3.95381">
        <ele>869.7</ele>
        <time>2012-04-12T15:07:45Z</time>
      </trkpt>
      <trkpt lat="45.28859" lon="3.95357">
        <ele>867.4</ele>
        <time>2012-04-12T15:07:50Z</time>
      </trkpt>
      <trkpt lat="45.28888" lon="3.95331">
        <ele>859.7</ele>
        <time>2012-04-12T15:07:55Z</time>
      </trkpt>
      <trkpt lat="45.28929" lon="3.95298">
        <ele>868.1</ele>
        <time>2012-04-12T15:08:02Z</time>
      </trkpt>
      <trkpt lat="45.28956" lon="3.95276">
        <ele>864.2</ele>
        <time>2012-04-12T15:08:08Z</time>
      </trkpt>
      <trkpt lat="45.28989" lon="3.95252">
        <ele>857.7</ele>
        <time>2012-04-12T15:08:14Z</time>
      </trkpt>
      <trkpt lat="45.29012" lon="3.95222">
        <ele>864.3</ele>
        <time>2012-04-12T15:08:20Z</time>
      </trkpt>
      <trkpt lat="45.29037" lon="3.95181">
        <ele>854.5</ele>
        <time>2012-04-12T15:08:27Z</time>
      </trkpt>
      <trkpt lat="45.29063" lon="3.95151">
        <ele>859</ele>
        <time>2012-04-12T15:08:33Z</time>
      </trkpt>
      <trkpt lat="45.29091" lon="3.95133">
        <ele>864.7</ele>
        <time>2012-04-12T15:08:39Z</time>
      </trkpt>
      <trkpt lat="45.29126" lon="3.95132">
        <ele>854.8</ele>
        <time>2012-04-12T15:08:45Z</time>
      </trkpt>
      <trkpt lat="45.29167" lon="3.95146">
        <ele>856.2</ele>
        <time>2012-04-12T15:08:51Z</time>
      </trkpt>
      <trkpt lat="45.29196" lon="3.95166">
        <ele>849.3</ele>
        <time>2012-04-12T15:08:55Z</time>
      </trkpt>
      <trkpt lat="45.29245" lon="3.95184">
        <ele>847.2</ele>
        <time>2012-04-12T15:09:01Z</time>
      </trkpt>
      <trkpt lat="45.29298" lon="3.95193">
        <ele>841.5</ele>
        <time>2012-04-12T15:09:07Z</time>
      </trkpt>
      <trkpt lat="45.29328" lon="3.9519">
        <ele>842.4</ele>
        <time>2012-04-12T15:09:11Z</time>
      </trkpt>
      <trkpt lat="45.29376" lon="3.95155">
        <ele>846.7</ele>
        <time>2012-04-12T15:09:17Z</time>
      </trkpt>
      <trkpt lat="45.29412" lon="3.951">
        <ele>842</ele>
        <time>2012-04-12T15:09:23Z</time>
      </trkpt>
      <trkpt lat="45.29436" lon="3.95062">
        <ele>839</ele>
        <time>2012-04-12T15:09:28Z</time>
      </trkpt>
      <trkpt lat="45.29461" lon="3.9503">
        <ele>841.8</ele>
        <time>2012-04-12T15:09:33Z</time>
      </trkpt>
      <trkpt lat="45.29487" lon="3.94993">
        <ele>842.8</ele>
        <time>2012-04-12T15:09:39Z</time>
      </trkpt>
      <trkpt lat="45.29508" lon="3.94959">
        <ele>843.5</ele>
        <time>2012-04-12T15:09:44Z</time>
      </trkpt>
      <trkpt lat="45.2953" lon="3.9492">
        <ele>840.3</ele>
        <time>2012-04-12T15:09:50Z</time>
      </trkpt>
      <trkpt lat="45.29557" lon="3.94888">
        <ele>844.3</ele>
        <time>2012-04-12T15:09:56Z</time>
      </trkpt>
      <trkpt lat="45.29583" lon="3.94861">
        <ele>843.7</ele>
        <time>2012-04-12T15:10:02Z</time>
      </trkpt>
      <trkpt lat="45.29611" lon="3.9484">
        <ele>842.4</ele>
        <time>2012-04-12T15:10:08Z</time>
      </trkpt>
      <trkpt lat="45.29639" lon="3.94816">
        <ele>843.6</ele>
        <time>2012-04-12T15:10:14Z</time>
      </trkpt>
      <trkpt lat="45.29669" lon="3.9479">
        <ele>845.7</ele>
        <time>2012-04-12T15:10:20Z</time>
      </trkpt>
      <trkpt lat="45.29698" lon="3.9477">
        <ele>846.2</ele>
        <time>2012-04-12T15:10:26Z</time>
      </trkpt>
      <trkpt lat="45.29727" lon="3.94759">
        <ele>844.1</ele>
        <time>2012-04-12T15:10:32Z</time>
      </trkpt>
      <trkpt lat="45.29762" lon="3.94753">
        <ele>848.3</ele>
        <time>2012-04-12T15:10:38Z</time>
      </trkpt>
      <trkpt lat="45.29793" lon="3.94747">
        <ele>846.7</ele>
        <time>2012-04-12T15:10:44Z</time>
      </trkpt>
      <trkpt lat="45.29829" lon="3.94746">
        <ele>840.8</ele>
        <time>2012-04-12T15:10:50Z</time>
      </trkpt>
      <trkpt lat="45.29862" lon="3.94752">
        <ele>839.5</ele>
        <time>2012-04-12T15:10:55Z</time>
      </trkpt>
      <trkpt lat="45.29893" lon="3.94764">
        <ele>844.7</ele>
        <time>2012-04-12T15:11:01Z</time>
      </trkpt>
      <trkpt lat="45.29924" lon="3.94763">
        <ele>842.1</ele>
        <time>2012-04-12T15:11:06Z</time>
      </trkpt>
      <trkpt lat="45.29954" lon="3.9475">
        <ele>840.7</ele>
        <time>2012-04-12T15:11:12Z</time>
      </trkpt>
      <trkpt lat="45.29982" lon="3.94727">
        <ele>837.1</ele>
        <time>2012-04-12T15:11:17Z</time>
      </trkpt>
      <trkpt lat="45.30011" lon="3.94696">
        <ele>838</ele>
        <time>2012-04-12T15:11:23Z</time>
      </trkpt>
      <trkpt lat="45.30041" lon="3.94664">
        <ele>836.4</ele>
        <time>2012-04-12T15:11:29Z</time>
      </trkpt>
      <trkpt lat="45.30063" lon="3.9463">
        <ele>833.8</ele>
        <time>2012-04-12T15:11:35Z</time>
      </trkpt>
      <trkpt lat="45.30078" lon="3.94585">
        <ele>835.5</ele>
        <time>2012-04-12T15:11:41Z</time>
      </trkpt>
      <trkpt lat="45.30092" lon="3.94539">
        <ele>831.4</ele>
        <time>2012-04-12T15:11:47Z</time>
      </trkpt>
      <trkpt lat="45.30109" lon="3.94501">
        <ele>828.4</ele>
        <time>2012-04-12T15:11:52Z</time>
      </trkpt>
      <trkpt lat="45.30128" lon="3.94468">
        <ele>831.9</ele>
        <time>2012-04-12T15:11:56Z</time>
      </trkpt>
      <trkpt lat="45.3016" lon="3.94414">
        <ele>827.2</ele>
        <time>2012-04-12T15:12:02Z</time>
      </trkpt>
      <trkpt lat="45.30176" lon="3.9437">
        <ele>820.1</ele>
        <time>2012-04-12T15:12:06Z</time>
      </trkpt>
      <trkpt lat="45.30179" lon="3.94296">
        <ele>818.6</ele>
        <time>2012-04-12T15:12:12Z</time>
      </trkpt>
      <trkpt lat="45.30162" lon="3.94245">
        <ele>818.1</ele>
        <time>2012-04-12T15:12:16Z</time>
      </trkpt>
      <trkpt lat="45.30133" lon="3.94182">
        <ele>815.5</ele>
        <time>2012-04-12T15:12:22Z</time>
      </trkpt>
      <trkpt lat="45.3012" lon="3.94135">
        <ele>815</ele>
        <time>2012-04-12T15:12:26Z</time>
      </trkpt>
      <trkpt lat="45.30125" lon="3.94089">
        <ele>813.6</ele>
        <time>2012-04-12T15:12:31Z</time>
      </trkpt>
      <trkpt lat="45.30146" lon="3.94035">
        <ele>814.3</ele>
        <time>2012-04-12T15:12:37Z</time>
      </trkpt>
      <trkpt lat="45.30158" lon="3.9399">
        <ele>813.8</ele>
        <time>2012-04-12T15:12:42Z</time>
      </trkpt>
      <trkpt lat="45.3016" lon="3.93926">
        <ele>807.7</ele>
        <time>2012-04-12T15:12:48Z</time>
      </trkpt>
      <trkpt lat="45.30158" lon="3.93877">
        <ele>800.9</ele>
        <time>2012-04-12T15:12:52Z</time>
      </trkpt>
      <trkpt lat="45.30158" lon="3.93797">
        <ele>797.3</ele>
        <time>2012-04-12T15:12:58Z</time>
      </trkpt>
      <trkpt lat="45.30165" lon="3.93741">
        <ele>793.9</ele>
        <time>2012-04-12T15:13:02Z</time>
      </trkpt>
      <trkpt lat="45.30188" lon="3.93695">
        <ele>795.3</ele>
        <time>2012-04-12T15:13:06Z</time>
      </trkpt>
      <trkpt lat="45.30228" lon="3.93646">
        <ele>793.7</ele>
        <time>2012-04-12T15:13:12Z</time>
      </trkpt>
      <trkpt lat="45.30252" lon="3.93618">
        <ele>792.5</ele>
        <time>2012-04-12T15:13:16Z</time>
      </trkpt>
      <trkpt lat="45.30272" lon="3.9358">
        <ele>793.3</ele>
        <time>2012-04-12T15:13:21Z</time>
      </trkpt>
      <trkpt lat="45.30288" lon="3.93519">
        <ele>793.4</ele>
        <time>2012-04-12T15:13:27Z</time>
      </trkpt>
      <trkpt lat="45.30294" lon="3.93459">
        <ele>788.7</ele>
        <time>2012-04-12T15:13:33Z</time>
      </trkpt>
      <trkpt lat="45.30305" lon="3.93413">
        <ele>789.6</ele>
        <time>2012-04-12T15:13:39Z</time>
      </trkpt>
      <trkpt lat="45.3033" lon="3.9338">
        <ele>786.8</ele>
        <time>2012-04-12T15:13:44Z</time>
      </trkpt>
      <trkpt lat="45.30356" lon="3.9337">
        <ele>790.5</ele>
        <time>2012-04-12T15:13:48Z</time>
      </trkpt>
      <trkpt lat="45.30394" lon="3.93375">
        <ele>786.7</ele>
        <time>2012-04-12T15:13:54Z</time>
      </trkpt>
      <trkpt lat="45.30433" lon="3.93381">
        <ele>785.4</ele>
        <time>2012-04-12T15:14:00Z</time>
      </trkpt>
      <trkpt lat="45.30469" lon="3.93381">
        <ele>786.3</ele>
        <time>2012-04-12T15:14:06Z</time>
      </trkpt>
      <trkpt lat="45.30505" lon="3.93383">
        <ele>781.4</ele>
        <time>2012-04-12T15:14:12Z</time>
      </trkpt>
      <trkpt lat="45.30538" lon="3.93391">
        <ele>780</ele>
        <time>2012-04-12T15:14:17Z</time>
      </trkpt>
      <trkpt lat="45.3057" lon="3.93399">
        <ele>776.9</ele>
        <time>2012-04-12T15:14:21Z</time>
      </trkpt>
      <trkpt lat="45.30618" lon="3.93412">
        <ele>770.1</ele>
        <time>2012-04-12T15:14:27Z</time>
      </trkpt>
      <trkpt lat="45.30657" lon="3.93426">
        <ele>767.2</ele>
        <time>2012-04-12T15:14:31Z</time>
      </trkpt>
      <trkpt lat="45.30691" lon="3.93452">
        <ele>760.1</ele>
        <time>2012-04-12T15:14:35Z</time>
      </trkpt>
      <trkpt lat="45.3074" lon="3.93488">
        <ele>760.8</ele>
        <time>2012-04-12T15:14:41Z</time>
      </trkpt>
      <trkpt lat="45.3077" lon="3.93507">
        <ele>761.2</ele>
        <time>2012-04-12T15:14:45Z</time>
      </trkpt>
      <trkpt lat="45.30814" lon="3.93507">
        <ele>765</ele>
        <time>2012-04-12T15:14:51Z</time>
      </trkpt>
      <trkpt lat="45.30842" lon="3.9349">
        <ele>764.9</ele>
        <time>2012-04-12T15:14:55Z</time>
      </trkpt>
      <trkpt lat="45.30867" lon="3.93465">
        <ele>765.2</ele>
        <time>2012-04-12T15:14:59Z</time>
      </trkpt>
      <trkpt lat="45.30895" lon="3.93432">
        <ele>764.4</ele>
        <time>2012-04-12T15:15:04Z</time>
      </trkpt>
      <trkpt lat="45.3092" lon="3.934">
        <ele>759.7</ele>
        <time>2012-04-12T15:15:08Z</time>
      </trkpt>
      <trkpt lat="45.3096" lon="3.93354">
        <ele>755.4</ele>
        <time>2012-04-12T15:15:14Z</time>
      </trkpt>
      <trkpt lat="45.31" lon="3.93291">
        <ele>751.5</ele>
        <time>2012-04-12T15:15:20Z</time>
      </trkpt>
      <trkpt lat="45.31017" lon="3.93243">
        <ele>747.2</ele>
        <time>2012-04-12T15:15:24Z</time>
      </trkpt>
      <trkpt lat="45.31032" lon="3.93164">
        <ele>743.4</ele>
        <time>2012-04-12T15:15:30Z</time>
      </trkpt>
      <trkpt lat="45.31031" lon="3.93083">
        <ele>740</ele>
        <time>2012-04-12T15:15:36Z</time>
      </trkpt>
      <trkpt lat="45.31022" lon="3.93031">
        <ele>734.4</ele>
        <time>2012-04-12T15:15:40Z</time>
      </trkpt>
      <trkpt lat="45.31061" lon="3.9299">
        <ele>732.8</ele>
        <time>2012-04-12T15:15:46Z</time>
      </trkpt>
      <trkpt lat="45.31094" lon="3.92969">
        <ele>730.5</ele>
        <time>2012-04-12T15:15:50Z</time>
      </trkpt>
      <trkpt lat="45.31144" lon="3.92937">
        <ele>721.1</ele>
        <time>2012-04-12T15:15:56Z</time>
      </trkpt>
      <trkpt lat="45.31179" lon="3.92909">
        <ele>724.5</ele>
        <time>2012-04-12T15:16:00Z</time>
      </trkpt>
      <trkpt lat="45.31211" lon="3.92878">
        <ele>723.6</ele>
        <time>2012-04-12T15:16:04Z</time>
      </trkpt>
      <trkpt lat="45.31257" lon="3.92864">
        <ele>719.9</ele>
        <time>2012-04-12T15:16:10Z</time>
      </trkpt>
      <trkpt lat="45.31288" lon="3.92863">
        <ele>720.8</ele>
        <time>2012-04-12T15:16:14Z</time>
      </trkpt>
      <trkpt lat="45.31324" lon="3.92897">
        <ele>717.2</ele>
        <time>2012-04-12T15:16:21Z</time>
      </trkpt>
      <trkpt lat="45.31341" lon="3.92936">
        <ele>716.8</ele>
        <time>2012-04-12T15:16:26Z</time>
      </trkpt>
      <trkpt lat="45.31359" lon="3.92981">
        <ele>715.8</ele>
        <time>2012-04-12T15:16:32Z</time>
      </trkpt>
      <trkpt lat="45.31383" lon="3.93005">
        <ele>712.8</ele>
        <time>2012-04-12T15:16:40Z</time>
      </trkpt>
      <trkpt lat="45.31383" lon="3.93005">
        <ele>713.7</ele>
        <time>2012-04-12T15:16:52Z</time>
      </trkpt>
      <trkpt lat="45.31383" lon="3.93005">
        <ele>713.7</ele>
        <time>2012-04-12T15:18:24Z</time>
      </trkpt>
      <trkpt lat="45.31389" lon="3.93008">
        <ele>721.2</ele>
        <time>2012-04-12T15:18:25Z</time>
      </trkpt>
      <trkpt lat="45.31389" lon="3.93008">
        <ele>714.3</ele>
        <time>2012-04-12T15:18:36Z</time>
      </trkpt>
      <trkpt lat="45.31389" lon="3.93008">
        <ele>714.3</ele>
        <time>2012-04-12T15:18:56Z</time>
      </trkpt>
      <trkpt lat="45.31394" lon="3.93004">
        <ele>722.7</ele>
        <time>2012-04-12T15:18:57Z</time>
      </trkpt>
      <trkpt lat="45.31407" lon="3.92994">
        <ele>719.1</ele>
        <time>2012-04-12T15:19:04Z</time>
      </trkpt>
      <trkpt lat="45.31414" lon="3.92978">
        <ele>720.4</ele>
        <time>2012-04-12T15:19:10Z</time>
      </trkpt>
      <trkpt lat="45.3142" lon="3.9296">
        <ele>724</ele>
        <time>2012-04-12T15:19:15Z</time>
      </trkpt>
      <trkpt lat="45.31426" lon="3.9294">
        <ele>722.7</ele>
        <time>2012-04-12T15:19:21Z</time>
      </trkpt>
      <trkpt lat="45.31432" lon="3.92922">
        <ele>728.7</ele>
        <time>2012-04-12T15:19:27Z</time>
      </trkpt>
      <trkpt lat="45.31432" lon="3.92922">
        <ele>717.9</ele>
        <time>2012-04-12T15:19:39Z</time>
      </trkpt>
      <trkpt lat="45.31432" lon="3.92922">
        <ele>717.9</ele>
        <time>2012-04-12T15:23:49Z</time>
      </trkpt>
      <trkpt lat="45.31435" lon="3.92911">
        <ele>723.1</ele>
        <time>2012-04-12T15:23:50Z</time>
      </trkpt>
      <trkpt lat="45.31435" lon="3.92911">
        <ele>718.3</ele>
        <time>2012-04-12T15:24:02Z</time>
      </trkpt>
      <trkpt lat="45.31435" lon="3.92911">
        <ele>718.3</ele>
        <time>2012-04-12T15:28:44Z</time>
      </trkpt>
      <trkpt lat="45.31439" lon="3.92903">
        <ele>724.6</ele>
        <time>2012-04-12T15:28:45Z</time>
      </trkpt>
      <trkpt lat="45.3145" lon="3.92887">
        <ele>725.2</ele>
        <time>2012-04-12T15:28:52Z</time>
      </trkpt>
      <trkpt lat="45.3146" lon="3.92874">
        <ele>725.6</ele>
        <time>2012-04-12T15:28:58Z</time>
      </trkpt>
      <trkpt lat="45.31471" lon="3.92862">
        <ele>726.2</ele>
        <time>2012-04-12T15:29:04Z</time>
      </trkpt>
      <trkpt lat="45.31485" lon="3.92857">
        <ele>726.1</ele>
        <time>2012-04-12T15:29:10Z</time>
      </trkpt>
      <trkpt lat="45.31485" lon="3.92857">
        <ele>722.7</ele>
        <time>2012-04-12T15:29:32Z</time>
      </trkpt>
      <trkpt lat="45.31485" lon="3.92857">
        <ele>722.7</ele>
        <time>2012-04-12T15:29:32Z</time>
      </trkpt>
      <trkpt lat="45.315" lon="3.92858">
        <ele>727.3</ele>
        <time>2012-04-12T15:29:33Z</time>
      </trkpt>
      <trkpt lat="45.31513" lon="3.92864">
        <ele>729.2</ele>
        <time>2012-04-12T15:29:46Z</time>
      </trkpt>
      <trkpt lat="45.31513" lon="3.92864">
        <ele>725.8</ele>
        <time>2012-04-12T15:30:03Z</time>
      </trkpt>
      <trkpt lat="45.31513" lon="3.92864">
        <ele>725.8</ele>
        <time>2012-04-12T15:31:37Z</time>
      </trkpt>
      <trkpt lat="45.31523" lon="3.9287">
        <ele>733.3</ele>
        <time>2012-04-12T15:31:38Z</time>
      </trkpt>
      <trkpt lat="45.31523" lon="3.9287">
        <ele>727</ele>
        <time>2012-04-12T15:31:50Z</time>
      </trkpt>
      <trkpt lat="45.31523" lon="3.9287">
        <ele>727</ele>
        <time>2012-04-12T15:49:15Z</time>
      </trkpt>
      <trkpt lat="45.31529" lon="3.92868">
        <ele>728.4</ele>
        <time>2012-04-12T15:49:16Z</time>
      </trkpt>
      <trkpt lat="45.31529" lon="3.92868">
        <ele>727</ele>
        <time>2012-04-12T15:49:28Z</time>
      </trkpt>
      <trkpt lat="45.31529" lon="3.92868">
        <ele>727</ele>
        <time>2012-04-12T15:50:01Z</time>
      </trkpt>
      <trkpt lat="45.31523" lon="3.92863">
        <ele>731.1</ele>
        <time>2012-04-12T15:50:02Z</time>
      </trkpt>
      <trkpt lat="45.31509" lon="3.92856">
        <ele>726.2</ele>
        <time>2012-04-12T15:50:08Z</time>
      </trkpt>
      <trkpt lat="45.31481" lon="3.92852">
        <ele>724.6</ele>
        <time>2012-04-12T15:50:15Z</time>
      </trkpt>
      <trkpt lat="45.31451" lon="3.92877">
        <ele>726.3</ele>
        <time>2012-04-12T15:50:21Z</time>
      </trkpt>
      <trkpt lat="45.31429" lon="3.92911">
        <ele>724.7</ele>
        <time>2012-04-12T15:50:26Z</time>
      </trkpt>
      <trkpt lat="45.3141" lon="3.92957">
        <ele>720.6</ele>
        <time>2012-04-12T15:50:32Z</time>
      </trkpt>
      <trkpt lat="45.31398" lon="3.92997">
        <ele>718.4</ele>
        <time>2012-04-12T15:50:41Z</time>
      </trkpt>
      <trkpt lat="45.31398" lon="3.92997">
        <ele>714.7</ele>
        <time>2012-04-12T15:50:55Z</time>
      </trkpt>
      <trkpt lat="45.31398" lon="3.92997">
        <ele>714.7</ele>
        <time>2012-04-12T15:51:07Z</time>
      </trkpt>
      <trkpt lat="45.31403" lon="3.92993">
        <ele>719.7</ele>
        <time>2012-04-12T15:51:08Z</time>
      </trkpt>
      <trkpt lat="45.31414" lon="3.92954">
        <ele>721.3</ele>
        <time>2012-04-12T15:51:14Z</time>
      </trkpt>
      <trkpt lat="45.31432" lon="3.92908">
        <ele>720</ele>
        <time>2012-04-12T15:51:19Z</time>
      </trkpt>
      <trkpt lat="45.31468" lon="3.92861">
        <ele>724.9</ele>
        <time>2012-04-12T15:51:25Z</time>
      </trkpt>
      <trkpt lat="45.31517" lon="3.92862">
        <ele>728.2</ele>
        <time>2012-04-12T15:51:31Z</time>
      </trkpt>
      <trkpt lat="45.31549" lon="3.92877">
        <ele>730.9</ele>
        <time>2012-04-12T15:51:35Z</time>
      </trkpt>
      <trkpt lat="45.31584" lon="3.92892">
        <ele>734.4</ele>
        <time>2012-04-12T15:51:39Z</time>
      </trkpt>
      <trkpt lat="45.31641" lon="3.92888">
        <ele>738.4</ele>
        <time>2012-04-12T15:51:45Z</time>
      </trkpt>
      <trkpt lat="45.31705" lon="3.92891">
        <ele>740.9</ele>
        <time>2012-04-12T15:51:51Z</time>
      </trkpt>
      <trkpt lat="45.31746" lon="3.92903">
        <ele>741.5</ele>
        <time>2012-04-12T15:51:55Z</time>
      </trkpt>
      <trkpt lat="45.31787" lon="3.92915">
        <ele>744.6</ele>
        <time>2012-04-12T15:51:59Z</time>
      </trkpt>
      <trkpt lat="45.3184" lon="3.92926">
        <ele>752.4</ele>
        <time>2012-04-12T15:52:05Z</time>
      </trkpt>
      <trkpt lat="45.31859" lon="3.92971">
        <ele>752.6</ele>
        <time>2012-04-12T15:52:09Z</time>
      </trkpt>
      <trkpt lat="45.31871" lon="3.93052">
        <ele>757.2</ele>
        <time>2012-04-12T15:52:15Z</time>
      </trkpt>
      <trkpt lat="45.31889" lon="3.93084">
        <ele>758.4</ele>
        <time>2012-04-12T15:52:19Z</time>
      </trkpt>
      <trkpt lat="45.31918" lon="3.93073">
        <ele>764.4</ele>
        <time>2012-04-12T15:52:23Z</time>
      </trkpt>
      <trkpt lat="45.3195" lon="3.93049">
        <ele>768.3</ele>
        <time>2012-04-12T15:52:27Z</time>
      </trkpt>
      <trkpt lat="45.32004" lon="3.93039">
        <ele>768.6</ele>
        <time>2012-04-12T15:52:33Z</time>
      </trkpt>
      <trkpt lat="45.32041" lon="3.93016">
        <ele>773.2</ele>
        <time>2012-04-12T15:52:37Z</time>
      </trkpt>
      <trkpt lat="45.32093" lon="3.92968">
        <ele>776.5</ele>
        <time>2012-04-12T15:52:43Z</time>
      </trkpt>
      <trkpt lat="45.32131" lon="3.92947">
        <ele>778</ele>
        <time>2012-04-12T15:52:47Z</time>
      </trkpt>
      <trkpt lat="45.32191" lon="3.92933">
        <ele>783</ele>
        <time>2012-04-12T15:52:53Z</time>
      </trkpt>
      <trkpt lat="45.32254" lon="3.92947">
        <ele>791.6</ele>
        <time>2012-04-12T15:52:59Z</time>
      </trkpt>
      <trkpt lat="45.32288" lon="3.93018">
        <ele>794.9</ele>
        <time>2012-04-12T15:53:05Z</time>
      </trkpt>
      <trkpt lat="45.32332" lon="3.93075">
        <ele>802.6</ele>
        <time>2012-04-12T15:53:11Z</time>
      </trkpt>
      <trkpt lat="45.32369" lon="3.93113">
        <ele>803.9</ele>
        <time>2012-04-12T15:53:15Z</time>
      </trkpt>
      <trkpt lat="45.32426" lon="3.9318">
        <ele>804.6</ele>
        <time>2012-04-12T15:53:21Z</time>
      </trkpt>
      <trkpt lat="45.32459" lon="3.93235">
        <ele>804.6</ele>
        <time>2012-04-12T15:53:25Z</time>
      </trkpt>
      <trkpt lat="45.32492" lon="3.93294">
        <ele>805.7</ele>
        <time>2012-04-12T15:53:29Z</time>
      </trkpt>
      <trkpt lat="45.32555" lon="3.93359">
        <ele>809.2</ele>
        <time>2012-04-12T15:53:35Z</time>
      </trkpt>
      <trkpt lat="45.32618" lon="3.93387">
        <ele>816.5</ele>
        <time>2012-04-12T15:53:41Z</time>
      </trkpt>
      <trkpt lat="45.32648" lon="3.9344">
        <ele>817.9</ele>
        <time>2012-04-12T15:53:45Z</time>
      </trkpt>
      <trkpt lat="45.32701" lon="3.935">
        <ele>823.2</ele>
        <time>2012-04-12T15:53:51Z</time>
      </trkpt>
      <trkpt lat="45.32747" lon="3.93513">
        <ele>827.6</ele>
        <time>2012-04-12T15:53:55Z</time>
      </trkpt>
      <trkpt lat="45.32791" lon="3.93527">
        <ele>832.2</ele>
        <time>2012-04-12T15:53:59Z</time>
      </trkpt>
      <trkpt lat="45.32815" lon="3.93599">
        <ele>831.7</ele>
        <time>2012-04-12T15:54:05Z</time>
      </trkpt>
      <trkpt lat="45.32787" lon="3.93685">
        <ele>839</ele>
        <time>2012-04-12T15:54:11Z</time>
      </trkpt>
      <trkpt lat="45.32771" lon="3.93749">
        <ele>844.1</ele>
        <time>2012-04-12T15:54:15Z</time>
      </trkpt>
      <trkpt lat="45.32757" lon="3.93815">
        <ele>841.6</ele>
        <time>2012-04-12T15:54:19Z</time>
      </trkpt>
      <trkpt lat="45.32737" lon="3.93903">
        <ele>849.3</ele>
        <time>2012-04-12T15:54:24Z</time>
      </trkpt>
      <trkpt lat="45.32741" lon="3.93996">
        <ele>848.3</ele>
        <time>2012-04-12T15:54:30Z</time>
      </trkpt>
      <trkpt lat="45.32765" lon="3.94053">
        <ele>855.7</ele>
        <time>2012-04-12T15:54:34Z</time>
      </trkpt>
      <trkpt lat="45.32808" lon="3.94121">
        <ele>861.8</ele>
        <time>2012-04-12T15:54:40Z</time>
      </trkpt>
      <trkpt lat="45.32844" lon="3.94155">
        <ele>861.9</ele>
        <time>2012-04-12T15:54:44Z</time>
      </trkpt>
      <trkpt lat="45.32912" lon="3.94191">
        <ele>852.9</ele>
        <time>2012-04-12T15:54:50Z</time>
      </trkpt>
      <trkpt lat="45.32957" lon="3.94226">
        <ele>853.3</ele>
        <time>2012-04-12T15:54:54Z</time>
      </trkpt>
      <trkpt lat="45.33028" lon="3.94278">
        <ele>854.8</ele>
        <time>2012-04-12T15:55:00Z</time>
      </trkpt>
      <trkpt lat="45.33092" lon="3.94339">
        <ele>859.5</ele>
        <time>2012-04-12T15:55:06Z</time>
      </trkpt>
      <trkpt lat="45.33149" lon="3.94403">
        <ele>863.4</ele>
        <time>2012-04-12T15:55:12Z</time>
      </trkpt>
      <trkpt lat="45.33205" lon="3.94477">
        <ele>865.6</ele>
        <time>2012-04-12T15:55:18Z</time>
      </trkpt>
      <trkpt lat="45.33265" lon="3.94513">
        <ele>866.7</ele>
        <time>2012-04-12T15:55:23Z</time>
      </trkpt>
      <trkpt lat="45.33336" lon="3.94547">
        <ele>866.8</ele>
        <time>2012-04-12T15:55:29Z</time>
      </trkpt>
      <trkpt lat="45.33361" lon="3.946">
        <ele>873</ele>
        <time>2012-04-12T15:55:33Z</time>
      </trkpt>
      <trkpt lat="45.33376" lon="3.94667">
        <ele>877.7</ele>
        <time>2012-04-12T15:55:37Z</time>
      </trkpt>
      <trkpt lat="45.3338" lon="3.94754">
        <ele>881.1</ele>
        <time>2012-04-12T15:55:42Z</time>
      </trkpt>
      <trkpt lat="45.33371" lon="3.94838">
        <ele>885.4</ele>
        <time>2012-04-12T15:55:47Z</time>
      </trkpt>
      <trkpt lat="45.33383" lon="3.9493">
        <ele>889.1</ele>
        <time>2012-04-12T15:55:53Z</time>
      </trkpt>
      <trkpt lat="45.33395" lon="3.95003">
        <ele>889.5</ele>
        <time>2012-04-12T15:55:57Z</time>
      </trkpt>
      <trkpt lat="45.33405" lon="3.95093">
        <ele>890.6</ele>
        <time>2012-04-12T15:56:02Z</time>
      </trkpt>
      <trkpt lat="45.33429" lon="3.95189">
        <ele>895.3</ele>
        <time>2012-04-12T15:56:08Z</time>
      </trkpt>
      <trkpt lat="45.3345" lon="3.95253">
        <ele>898.2</ele>
        <time>2012-04-12T15:56:12Z</time>
      </trkpt>
      <trkpt lat="45.33475" lon="3.95294">
        <ele>896.9</ele>
        <time>2012-04-12T15:56:16Z</time>
      </trkpt>
      <trkpt lat="45.3353" lon="3.95351">
        <ele>899.6</ele>
        <time>2012-04-12T15:56:22Z</time>
      </trkpt>
      <trkpt lat="45.33596" lon="3.95405">
        <ele>897.7</ele>
        <time>2012-04-12T15:56:28Z</time>
      </trkpt>
      <trkpt lat="45.33639" lon="3.9544">
        <ele>895.6</ele>
        <time>2012-04-12T15:56:32Z</time>
      </trkpt>
      <trkpt lat="45.33702" lon="3.95486">
        <ele>900</ele>
        <time>2012-04-12T15:56:38Z</time>
      </trkpt>
      <trkpt lat="45.33756" lon="3.95541">
        <ele>900.5</ele>
        <time>2012-04-12T15:56:43Z</time>
      </trkpt>
      <trkpt lat="45.33807" lon="3.95575">
        <ele>902.9</ele>
        <time>2012-04-12T15:56:48Z</time>
      </trkpt>
      <trkpt lat="45.33852" lon="3.95569">
        <ele>905.6</ele>
        <time>2012-04-12T15:56:52Z</time>
      </trkpt>
      <trkpt lat="45.33924" lon="3.95557">
        <ele>908.4</ele>
        <time>2012-04-12T15:56:58Z</time>
      </trkpt>
      <trkpt lat="45.33984" lon="3.9552">
        <ele>907.6</ele>
        <time>2012-04-12T15:57:03Z</time>
      </trkpt>
      <trkpt lat="45.34029" lon="3.95477">
        <ele>907.3</ele>
        <time>2012-04-12T15:57:07Z</time>
      </trkpt>
      <trkpt lat="45.34084" lon="3.95434">
        <ele>907.6</ele>
        <time>2012-04-12T15:57:12Z</time>
      </trkpt>
      <trkpt lat="45.34142" lon="3.95382">
        <ele>910.7</ele>
        <time>2012-04-12T15:57:18Z</time>
      </trkpt>
      <trkpt lat="45.34217" lon="3.95378">
        <ele>911.7</ele>
        <time>2012-04-12T15:57:24Z</time>
      </trkpt>
      <trkpt lat="45.34263" lon="3.9539">
        <ele>914.2</ele>
        <time>2012-04-12T15:57:28Z</time>
      </trkpt>
      <trkpt lat="45.34313" lon="3.95442">
        <ele>916.8</ele>
        <time>2012-04-12T15:57:34Z</time>
      </trkpt>
      <trkpt lat="45.3434" lon="3.9551">
        <ele>918.8</ele>
        <time>2012-04-12T15:57:40Z</time>
      </trkpt>
      <trkpt lat="45.34385" lon="3.95528">
        <ele>918</ele>
        <time>2012-04-12T15:57:44Z</time>
      </trkpt>
      <trkpt lat="45.34435" lon="3.95524">
        <ele>915.2</ele>
        <time>2012-04-12T15:57:48Z</time>
      </trkpt>
      <trkpt lat="45.34517" lon="3.95526">
        <ele>909.5</ele>
        <time>2012-04-12T15:57:54Z</time>
      </trkpt>
      <trkpt lat="45.34598" lon="3.95517">
        <ele>903.6</ele>
        <time>2012-04-12T15:58:00Z</time>
      </trkpt>
      <trkpt lat="45.34669" lon="3.95523">
        <ele>904.9</ele>
        <time>2012-04-12T15:58:06Z</time>
      </trkpt>
      <trkpt lat="45.34738" lon="3.95511">
        <ele>901.7</ele>
        <time>2012-04-12T15:58:11Z</time>
      </trkpt>
      <trkpt lat="45.34799" lon="3.95506">
        <ele>895.7</ele>
        <time>2012-04-12T15:58:15Z</time>
      </trkpt>
      <trkpt lat="45.34879" lon="3.95491">
        <ele>888.2</ele>
        <time>2012-04-12T15:58:20Z</time>
      </trkpt>
      <trkpt lat="45.34947" lon="3.95474">
        <ele>884.7</ele>
        <time>2012-04-12T15:58:25Z</time>
      </trkpt>
      <trkpt lat="45.34992" lon="3.95465">
        <ele>886.4</ele>
        <time>2012-04-12T15:58:29Z</time>
      </trkpt>
      <trkpt lat="45.35052" lon="3.95428">
        <ele>894.1</ele>
        <time>2012-04-12T15:58:35Z</time>
      </trkpt>
      <trkpt lat="45.35094" lon="3.95415">
        <ele>896.8</ele>
        <time>2012-04-12T15:58:39Z</time>
      </trkpt>
      <trkpt lat="45.35136" lon="3.95422">
        <ele>896.1</ele>
        <time>2012-04-12T15:58:43Z</time>
      </trkpt>
      <trkpt lat="45.35177" lon="3.95436">
        <ele>892.6</ele>
        <time>2012-04-12T15:58:47Z</time>
      </trkpt>
      <trkpt lat="45.35238" lon="3.95453">
        <ele>889.7</ele>
        <time>2012-04-12T15:58:53Z</time>
      </trkpt>
      <trkpt lat="45.35306" lon="3.95456">
        <ele>887.1</ele>
        <time>2012-04-12T15:58:59Z</time>
      </trkpt>
      <trkpt lat="45.35353" lon="3.95428">
        <ele>881.1</ele>
        <time>2012-04-12T15:59:03Z</time>
      </trkpt>
      <trkpt lat="45.35412" lon="3.95402">
        <ele>880.1</ele>
        <time>2012-04-12T15:59:09Z</time>
      </trkpt>
      <trkpt lat="45.3545" lon="3.9542">
        <ele>875.9</ele>
        <time>2012-04-12T15:59:13Z</time>
      </trkpt>
      <trkpt lat="45.35494" lon="3.95456">
        <ele>872.7</ele>
        <time>2012-04-12T15:59:19Z</time>
      </trkpt>
      <trkpt lat="45.35512" lon="3.95469">
        <ele>867.8</ele>
        <time>2012-04-12T15:59:24Z</time>
      </trkpt>
      <trkpt lat="45.35527" lon="3.95479">
        <ele>872.1</ele>
        <time>2012-04-12T15:59:29Z</time>
      </trkpt>
      <trkpt lat="45.35556" lon="3.95494">
        <ele>872</ele>
        <time>2012-04-12T15:59:34Z</time>
      </trkpt>
      <trkpt lat="45.35596" lon="3.95516">
        <ele>874.6</ele>
        <time>2012-04-12T15:59:40Z</time>
      </trkpt>
      <trkpt lat="45.35628" lon="3.95528">
        <ele>876.4</ele>
        <time>2012-04-12T15:59:44Z</time>
      </trkpt>
      <trkpt lat="45.35672" lon="3.95546">
        <ele>881.8</ele>
        <time>2012-04-12T15:59:50Z</time>
      </trkpt>
      <trkpt lat="45.35699" lon="3.95576">
        <ele>883.5</ele>
        <time>2012-04-12T15:59:55Z</time>
      </trkpt>
      <trkpt lat="45.35699" lon="3.95576">
        <ele>882.5</ele>
        <time>2012-04-12T16:00:10Z</time>
      </trkpt>
      <trkpt lat="45.35699" lon="3.95576">
        <ele>882.5</ele>
        <time>2012-04-12T16:02:03Z</time>
      </trkpt>
      <trkpt lat="45.35711" lon="3.95616">
        <ele>880.8</ele>
        <time>2012-04-12T16:02:04Z</time>
      </trkpt>
      <trkpt lat="45.35707" lon="3.9566">
        <ele>884.3</ele>
        <time>2012-04-12T16:02:11Z</time>
      </trkpt>
      <trkpt lat="45.35697" lon="3.95703">
        <ele>888.3</ele>
        <time>2012-04-12T16:02:18Z</time>
      </trkpt>
      <trkpt lat="45.35704" lon="3.95752">
        <ele>887.7</ele>
        <time>2012-04-12T16:02:24Z</time>
      </trkpt>
      <trkpt lat="45.35717" lon="3.95796">
        <ele>889.6</ele>
        <time>2012-04-12T16:02:29Z</time>
      </trkpt>
      <trkpt lat="45.35729" lon="3.95834">
        <ele>891.7</ele>
        <time>2012-04-12T16:02:33Z</time>
      </trkpt>
      <trkpt lat="45.35727" lon="3.95899">
        <ele>894.1</ele>
        <time>2012-04-12T16:02:39Z</time>
      </trkpt>
      <trkpt lat="45.35707" lon="3.95942">
        <ele>901.8</ele>
        <time>2012-04-12T16:02:43Z</time>
      </trkpt>
      <trkpt lat="45.35687" lon="3.95996">
        <ele>900.1</ele>
        <time>2012-04-12T16:02:47Z</time>
      </trkpt>
      <trkpt lat="45.35669" lon="3.96047">
        <ele>899</ele>
        <time>2012-04-12T16:02:51Z</time>
      </trkpt>
      <trkpt lat="45.35637" lon="3.96135">
        <ele>903.7</ele>
        <time>2012-04-12T16:02:57Z</time>
      </trkpt>
      <trkpt lat="45.35616" lon="3.96193">
        <ele>910.2</ele>
        <time>2012-04-12T16:03:01Z</time>
      </trkpt>
      <trkpt lat="45.35584" lon="3.96289">
        <ele>915.7</ele>
        <time>2012-04-12T16:03:07Z</time>
      </trkpt>
      <trkpt lat="45.35574" lon="3.9636">
        <ele>917.7</ele>
        <time>2012-04-12T16:03:11Z</time>
      </trkpt>
      <trkpt lat="45.35575" lon="3.96433">
        <ele>923.6</ele>
        <time>2012-04-12T16:03:15Z</time>
      </trkpt>
      <trkpt lat="45.35579" lon="3.96528">
        <ele>927.6</ele>
        <time>2012-04-12T16:03:21Z</time>
      </trkpt>
      <trkpt lat="45.35574" lon="3.96571">
        <ele>929</ele>
        <time>2012-04-12T16:03:26Z</time>
      </trkpt>
      <trkpt lat="45.35543" lon="3.96579">
        <ele>929.5</ele>
        <time>2012-04-12T16:03:31Z</time>
      </trkpt>
      <trkpt lat="45.35512" lon="3.96584">
        <ele>933.4</ele>
        <time>2012-04-12T16:03:35Z</time>
      </trkpt>
      <trkpt lat="45.35479" lon="3.96603">
        <ele>936.1</ele>
        <time>2012-04-12T16:03:39Z</time>
      </trkpt>
      <trkpt lat="45.35427" lon="3.96641">
        <ele>937.9</ele>
        <time>2012-04-12T16:03:45Z</time>
      </trkpt>
      <trkpt lat="45.35392" lon="3.96664">
        <ele>939.3</ele>
        <time>2012-04-12T16:03:49Z</time>
      </trkpt>
      <trkpt lat="45.35353" lon="3.96691">
        <ele>940</ele>
        <time>2012-04-12T16:03:53Z</time>
      </trkpt>
      <trkpt lat="45.35297" lon="3.96732">
        <ele>945.6</ele>
        <time>2012-04-12T16:03:59Z</time>
      </trkpt>
      <trkpt lat="45.35243" lon="3.96712">
        <ele>939.5</ele>
        <time>2012-04-12T16:04:05Z</time>
      </trkpt>
      <trkpt lat="45.35211" lon="3.96692">
        <ele>941.7</ele>
        <time>2012-04-12T16:04:09Z</time>
      </trkpt>
      <trkpt lat="45.35152" lon="3.96692">
        <ele>947.7</ele>
        <time>2012-04-12T16:04:15Z</time>
      </trkpt>
      <trkpt lat="45.35112" lon="3.96656">
        <ele>954.6</ele>
        <time>2012-04-12T16:04:21Z</time>
      </trkpt>
      <trkpt lat="45.3507" lon="3.96604">
        <ele>958.7</ele>
        <time>2012-04-12T16:04:27Z</time>
      </trkpt>
      <trkpt lat="45.35038" lon="3.96565">
        <ele>955.3</ele>
        <time>2012-04-12T16:04:31Z</time>
      </trkpt>
      <trkpt lat="45.3501" lon="3.96535">
        <ele>954.6</ele>
        <time>2012-04-12T16:04:35Z</time>
      </trkpt>
      <trkpt lat="45.34954" lon="3.96525">
        <ele>958.7</ele>
        <time>2012-04-12T16:04:41Z</time>
      </trkpt>
      <trkpt lat="45.34914" lon="3.96542">
        <ele>956.7</ele>
        <time>2012-04-12T16:04:45Z</time>
      </trkpt>
      <trkpt lat="45.3488" lon="3.9656">
        <ele>953.1</ele>
        <time>2012-04-12T16:04:49Z</time>
      </trkpt>
      <trkpt lat="45.34826" lon="3.96564">
        <ele>955.9</ele>
        <time>2012-04-12T16:04:55Z</time>
      </trkpt>
      <trkpt lat="45.34794" lon="3.9655">
        <ele>953.4</ele>
        <time>2012-04-12T16:04:59Z</time>
      </trkpt>
      <trkpt lat="45.34767" lon="3.96554">
        <ele>955.1</ele>
        <time>2012-04-12T16:05:03Z</time>
      </trkpt>
      <trkpt lat="45.34743" lon="3.96579">
        <ele>965.8</ele>
        <time>2012-04-12T16:05:08Z</time>
      </trkpt>
      <trkpt lat="45.34743" lon="3.96579">
        <ele>964.6</ele>
        <time>2012-04-12T16:05:32Z</time>
      </trkpt>
      <trkpt lat="45.34743" lon="3.96579">
        <ele>964.6</ele>
        <time>2012-04-12T16:06:07Z</time>
      </trkpt>
      <trkpt lat="45.34725" lon="3.96581">
        <ele>963.9</ele>
        <time>2012-04-12T16:06:08Z</time>
      </trkpt>
      <trkpt lat="45.34725" lon="3.96581">
        <ele>964</ele>
        <time>2012-04-12T16:06:19Z</time>
      </trkpt>
      <trkpt lat="45.34725" lon="3.96581">
        <ele>964</ele>
        <time>2012-04-12T16:06:28Z</time>
      </trkpt>
      <trkpt lat="45.34723" lon="3.96589">
        <ele>957.2</ele>
        <time>2012-04-12T16:06:29Z</time>
      </trkpt>
      <trkpt lat="45.34723" lon="3.96589">
        <ele>964.2</ele>
        <time>2012-04-12T16:06:40Z</time>
      </trkpt>
      <trkpt lat="45.34723" lon="3.96589">
        <ele>964.2</ele>
        <time>2012-04-12T16:07:03Z</time>
      </trkpt>
      <trkpt lat="45.34726" lon="3.96584">
        <ele>965.1</ele>
        <time>2012-04-12T16:07:04Z</time>
      </trkpt>
      <trkpt lat="45.34726" lon="3.96584">
        <ele>964.2</ele>
        <time>2012-04-12T16:07:15Z</time>
      </trkpt>
      <trkpt lat="45.34726" lon="3.96584">
        <ele>964.2</ele>
        <time>2012-04-12T16:07:23Z</time>
      </trkpt>
      <trkpt lat="45.34725" lon="3.96578">
        <ele>979.2</ele>
        <time>2012-04-12T16:07:24Z</time>
      </trkpt>
      <trkpt lat="45.34725" lon="3.96578">
        <ele>963.9</ele>
        <time>2012-04-12T16:07:35Z</time>
      </trkpt>
      <trkpt lat="45.34725" lon="3.96578">
        <ele>963.9</ele>
        <time>2012-04-12T16:09:25Z</time>
      </trkpt>
      <trkpt lat="45.34721" lon="3.96578">
        <ele>965.8</ele>
        <time>2012-04-12T16:09:26Z</time>
      </trkpt>
      <trkpt lat="45.34721" lon="3.96578">
        <ele>963.8</ele>
        <time>2012-04-12T16:09:38Z</time>
      </trkpt>
      <trkpt lat="45.34721" lon="3.96578">
        <ele>963.8</ele>
        <time>2012-04-12T16:12:35Z</time>
      </trkpt>
    </trkseg>
  </trk>
</gpx>